<?xml version="1.0" encoding="UTF-8" standalone="no" ?>
<gpx xmlns="http://www.topografix.com/GPX/1/1" xmlns:xsi="http://www.w3.org/2001/XMLSchema-instance" xsi:schemaLocation="http://www.topografix.com/GPX/1/1 http://www.topografix.com/GPX/1/1/gpx.xsd" version="1.1" creator="VisuGPX - https://www.visugpx.com">
  <metadata>
    <name>2023-12-16 LE VAUX SUR LES PAS DE L ANE</name>
    <desc><![CDATA[LE VAUX / BELESTA EN LAURAGAIS
#31 #RANDOX #LE-VAUX]]></desc>
  </metadata>
  <trk>
    <name><![CDATA[2023-12-16 09:36:24]]></name>
    <trkseg>
      <trkpt lat="43.4569" lon="1.83667">
        <ele>283</ele>
        <time>2023-12-16T08:36:24Z</time>
      </trkpt>
      <trkpt lat="43.4569" lon="1.83668">
        <ele>283</ele>
        <time>2023-12-16T08:36:25Z</time>
      </trkpt>
      <trkpt lat="43.45685" lon="1.83678">
        <ele>283.39999389648</ele>
        <time>2023-12-16T08:36:35Z</time>
      </trkpt>
      <trkpt lat="43.4567" lon="1.83695">
        <ele>283.60000610352</ele>
        <time>2023-12-16T08:36:54Z</time>
      </trkpt>
      <trkpt lat="43.45663" lon="1.83702">
        <ele>284.39999389648</ele>
        <time>2023-12-16T08:37:08Z</time>
      </trkpt>
      <trkpt lat="43.45661" lon="1.83704">
        <ele>284.39999389648</ele>
        <time>2023-12-16T08:37:10Z</time>
      </trkpt>
      <trkpt lat="43.45645" lon="1.8372">
        <ele>285.39999389648</ele>
        <time>2023-12-16T08:37:29Z</time>
      </trkpt>
      <trkpt lat="43.45637" lon="1.83727">
        <ele>285.60000610352</ele>
        <time>2023-12-16T08:37:40Z</time>
      </trkpt>
      <trkpt lat="43.45636" lon="1.83731">
        <ele>285.60000610352</ele>
        <time>2023-12-16T08:37:45Z</time>
      </trkpt>
      <trkpt lat="43.45621" lon="1.83737">
        <ele>285.20001220703</ele>
        <time>2023-12-16T08:38:05Z</time>
      </trkpt>
      <trkpt lat="43.4561" lon="1.83732">
        <ele>284.79998779297</ele>
        <time>2023-12-16T08:38:21Z</time>
      </trkpt>
      <trkpt lat="43.45615" lon="1.8373">
        <ele>284.79998779297</ele>
        <time>2023-12-16T08:38:36Z</time>
      </trkpt>
      <trkpt lat="43.45613" lon="1.83727">
        <ele>284.79998779297</ele>
        <time>2023-12-16T08:38:50Z</time>
      </trkpt>
      <trkpt lat="43.4561" lon="1.83732">
        <ele>284.79998779297</ele>
        <time>2023-12-16T08:39:09Z</time>
      </trkpt>
      <trkpt lat="43.45607" lon="1.8373">
        <ele>284.79998779297</ele>
        <time>2023-12-16T08:39:23Z</time>
      </trkpt>
      <trkpt lat="43.45608" lon="1.83729">
        <ele>284.79998779297</ele>
        <time>2023-12-16T08:39:45Z</time>
      </trkpt>
      <trkpt lat="43.45608" lon="1.83733">
        <ele>284.39999389648</ele>
        <time>2023-12-16T08:40:11Z</time>
      </trkpt>
      <trkpt lat="43.45609" lon="1.83727">
        <ele>284.20001220703</ele>
        <time>2023-12-16T08:40:48Z</time>
      </trkpt>
      <trkpt lat="43.45604" lon="1.83727">
        <ele>284.20001220703</ele>
        <time>2023-12-16T08:41:09Z</time>
      </trkpt>
      <trkpt lat="43.45588" lon="1.83721">
        <ele>283.60000610352</ele>
        <time>2023-12-16T08:41:24Z</time>
      </trkpt>
      <trkpt lat="43.45584" lon="1.83719">
        <ele>283.20001220703</ele>
        <time>2023-12-16T08:41:27Z</time>
      </trkpt>
      <trkpt lat="43.45582" lon="1.83719">
        <ele>283.20001220703</ele>
        <time>2023-12-16T08:41:29Z</time>
      </trkpt>
      <trkpt lat="43.45569" lon="1.83699">
        <ele>281.39999389648</ele>
        <time>2023-12-16T08:41:46Z</time>
      </trkpt>
      <trkpt lat="43.45563" lon="1.83678">
        <ele>279.60000610352</ele>
        <time>2023-12-16T08:42:03Z</time>
      </trkpt>
      <trkpt lat="43.45557" lon="1.83674">
        <ele>278.39999389648</ele>
        <time>2023-12-16T08:42:20Z</time>
      </trkpt>
      <trkpt lat="43.45548" lon="1.83693">
        <ele>277.79998779297</ele>
        <time>2023-12-16T08:42:35Z</time>
      </trkpt>
      <trkpt lat="43.45537" lon="1.83711">
        <ele>277</ele>
        <time>2023-12-16T08:42:49Z</time>
      </trkpt>
      <trkpt lat="43.45526" lon="1.83732">
        <ele>275.60000610352</ele>
        <time>2023-12-16T08:43:04Z</time>
      </trkpt>
      <trkpt lat="43.45522" lon="1.83738">
        <ele>275.39999389648</ele>
        <time>2023-12-16T08:43:09Z</time>
      </trkpt>
      <trkpt lat="43.45519" lon="1.83743">
        <ele>275</ele>
        <time>2023-12-16T08:43:14Z</time>
      </trkpt>
      <trkpt lat="43.45507" lon="1.83762">
        <ele>273.60000610352</ele>
        <time>2023-12-16T08:43:31Z</time>
      </trkpt>
      <trkpt lat="43.45498" lon="1.83788">
        <ele>272.39999389648</ele>
        <time>2023-12-16T08:43:48Z</time>
      </trkpt>
      <trkpt lat="43.45496" lon="1.83812">
        <ele>271</ele>
        <time>2023-12-16T08:44:04Z</time>
      </trkpt>
      <trkpt lat="43.45504" lon="1.83827">
        <ele>269.79998779297</ele>
        <time>2023-12-16T08:44:18Z</time>
      </trkpt>
      <trkpt lat="43.45508" lon="1.83829">
        <ele>269.60000610352</ele>
        <time>2023-12-16T08:44:22Z</time>
      </trkpt>
      <trkpt lat="43.45513" lon="1.83832">
        <ele>269.20001220703</ele>
        <time>2023-12-16T08:44:27Z</time>
      </trkpt>
      <trkpt lat="43.45531" lon="1.83836">
        <ele>267.20001220703</ele>
        <time>2023-12-16T08:44:44Z</time>
      </trkpt>
      <trkpt lat="43.45546" lon="1.83841">
        <ele>266.60000610352</ele>
        <time>2023-12-16T08:44:58Z</time>
      </trkpt>
      <trkpt lat="43.45559" lon="1.83857">
        <ele>265.39999389648</ele>
        <time>2023-12-16T08:45:12Z</time>
      </trkpt>
      <trkpt lat="43.45565" lon="1.83883">
        <ele>264.20001220703</ele>
        <time>2023-12-16T08:45:29Z</time>
      </trkpt>
      <trkpt lat="43.45569" lon="1.839">
        <ele>263.60000610352</ele>
        <time>2023-12-16T08:45:40Z</time>
      </trkpt>
      <trkpt lat="43.45573" lon="1.83907">
        <ele>263.20001220703</ele>
        <time>2023-12-16T08:45:46Z</time>
      </trkpt>
      <trkpt lat="43.45587" lon="1.83917">
        <ele>261.79998779297</ele>
        <time>2023-12-16T08:46:01Z</time>
      </trkpt>
      <trkpt lat="43.45607" lon="1.83924">
        <ele>260.79998779297</ele>
        <time>2023-12-16T08:46:18Z</time>
      </trkpt>
      <trkpt lat="43.4562" lon="1.83933">
        <ele>259.60000610352</ele>
        <time>2023-12-16T08:46:31Z</time>
      </trkpt>
      <trkpt lat="43.45632" lon="1.83949">
        <ele>259</ele>
        <time>2023-12-16T08:46:45Z</time>
      </trkpt>
      <trkpt lat="43.45642" lon="1.83973">
        <ele>258.20001220703</ele>
        <time>2023-12-16T08:47:01Z</time>
      </trkpt>
      <trkpt lat="43.45644" lon="1.83979">
        <ele>258</ele>
        <time>2023-12-16T08:47:04Z</time>
      </trkpt>
      <trkpt lat="43.45637" lon="1.83979">
        <ele>256.39999389648</ele>
        <time>2023-12-16T08:47:19Z</time>
      </trkpt>
      <trkpt lat="43.45632" lon="1.83978">
        <ele>255.80000305176</ele>
        <time>2023-12-16T08:47:32Z</time>
      </trkpt>
      <trkpt lat="43.45624" lon="1.83969">
        <ele>254.60000610352</ele>
        <time>2023-12-16T08:47:45Z</time>
      </trkpt>
      <trkpt lat="43.45622" lon="1.83968">
        <ele>254.19999694824</ele>
        <time>2023-12-16T08:47:47Z</time>
      </trkpt>
      <trkpt lat="43.45608" lon="1.83956">
        <ele>251</ele>
        <time>2023-12-16T08:48:04Z</time>
      </trkpt>
      <trkpt lat="43.45607" lon="1.83955">
        <ele>250.80000305176</ele>
        <time>2023-12-16T08:48:06Z</time>
      </trkpt>
      <trkpt lat="43.45596" lon="1.83948">
        <ele>249.39999389648</ele>
        <time>2023-12-16T08:48:19Z</time>
      </trkpt>
      <trkpt lat="43.45586" lon="1.83951">
        <ele>247.19999694824</ele>
        <time>2023-12-16T08:48:36Z</time>
      </trkpt>
      <trkpt lat="43.45589" lon="1.83953">
        <ele>246.19999694824</ele>
        <time>2023-12-16T08:48:43Z</time>
      </trkpt>
      <trkpt lat="43.45616" lon="1.83974">
        <ele>246.39999389648</ele>
        <time>2023-12-16T08:49:13Z</time>
      </trkpt>
      <trkpt lat="43.45623" lon="1.83994">
        <ele>245</ele>
        <time>2023-12-16T08:49:32Z</time>
      </trkpt>
      <trkpt lat="43.45624" lon="1.83994">
        <ele>245</ele>
        <time>2023-12-16T08:49:33Z</time>
      </trkpt>
      <trkpt lat="43.45631" lon="1.84022">
        <ele>243.60000610352</ele>
        <time>2023-12-16T08:49:54Z</time>
      </trkpt>
      <trkpt lat="43.45631" lon="1.84037">
        <ele>242</ele>
        <time>2023-12-16T08:50:08Z</time>
      </trkpt>
      <trkpt lat="43.45637" lon="1.84075">
        <ele>241.39999389648</ele>
        <time>2023-12-16T08:50:34Z</time>
      </trkpt>
      <trkpt lat="43.45638" lon="1.84094">
        <ele>241.80000305176</ele>
        <time>2023-12-16T08:50:52Z</time>
      </trkpt>
      <trkpt lat="43.45642" lon="1.8411">
        <ele>242.19999694824</ele>
        <time>2023-12-16T08:51:11Z</time>
      </trkpt>
      <trkpt lat="43.45641" lon="1.84136">
        <ele>241</ele>
        <time>2023-12-16T08:51:37Z</time>
      </trkpt>
      <trkpt lat="43.45621" lon="1.84149">
        <ele>240.39999389648</ele>
        <time>2023-12-16T08:52:01Z</time>
      </trkpt>
      <trkpt lat="43.45617" lon="1.84151">
        <ele>240.39999389648</ele>
        <time>2023-12-16T08:52:18Z</time>
      </trkpt>
      <trkpt lat="43.45608" lon="1.84131">
        <ele>240.19999694824</ele>
        <time>2023-12-16T08:52:41Z</time>
      </trkpt>
      <trkpt lat="43.45603" lon="1.84112">
        <ele>240.19999694824</ele>
        <time>2023-12-16T08:53:03Z</time>
      </trkpt>
      <trkpt lat="43.45594" lon="1.84093">
        <ele>240.60000610352</ele>
        <time>2023-12-16T08:53:23Z</time>
      </trkpt>
      <trkpt lat="43.45585" lon="1.84073">
        <ele>242.60000610352</ele>
        <time>2023-12-16T08:53:45Z</time>
      </trkpt>
      <trkpt lat="43.45578" lon="1.84066">
        <ele>243.60000610352</ele>
        <time>2023-12-16T08:53:54Z</time>
      </trkpt>
      <trkpt lat="43.45575" lon="1.84063">
        <ele>243.80000305176</ele>
        <time>2023-12-16T08:53:58Z</time>
      </trkpt>
      <trkpt lat="43.45561" lon="1.84053">
        <ele>243</ele>
        <time>2023-12-16T08:54:13Z</time>
      </trkpt>
      <trkpt lat="43.45547" lon="1.84046">
        <ele>242.39999389648</ele>
        <time>2023-12-16T08:54:27Z</time>
      </trkpt>
      <trkpt lat="43.45535" lon="1.84044">
        <ele>242.39999389648</ele>
        <time>2023-12-16T08:54:38Z</time>
      </trkpt>
      <trkpt lat="43.45528" lon="1.8404">
        <ele>242.19999694824</ele>
        <time>2023-12-16T08:54:46Z</time>
      </trkpt>
      <trkpt lat="43.45525" lon="1.84037">
        <ele>242</ele>
        <time>2023-12-16T08:54:50Z</time>
      </trkpt>
      <trkpt lat="43.45518" lon="1.84031">
        <ele>241.80000305176</ele>
        <time>2023-12-16T08:54:57Z</time>
      </trkpt>
      <trkpt lat="43.45502" lon="1.84025">
        <ele>241.80000305176</ele>
        <time>2023-12-16T08:55:14Z</time>
      </trkpt>
      <trkpt lat="43.45485" lon="1.84022">
        <ele>242.19999694824</ele>
        <time>2023-12-16T08:55:31Z</time>
      </trkpt>
      <trkpt lat="43.45462" lon="1.84019">
        <ele>241.80000305176</ele>
        <time>2023-12-16T08:55:52Z</time>
      </trkpt>
      <trkpt lat="43.4544" lon="1.84014">
        <ele>241.19999694824</ele>
        <time>2023-12-16T08:56:12Z</time>
      </trkpt>
      <trkpt lat="43.45422" lon="1.84014">
        <ele>241.60000610352</ele>
        <time>2023-12-16T08:56:31Z</time>
      </trkpt>
      <trkpt lat="43.45414" lon="1.84014">
        <ele>241.80000305176</ele>
        <time>2023-12-16T08:56:39Z</time>
      </trkpt>
      <trkpt lat="43.45398" lon="1.84026">
        <ele>242.39999389648</ele>
        <time>2023-12-16T08:56:56Z</time>
      </trkpt>
      <trkpt lat="43.45381" lon="1.84029">
        <ele>243</ele>
        <time>2023-12-16T08:57:11Z</time>
      </trkpt>
      <trkpt lat="43.45361" lon="1.84038">
        <ele>242.60000610352</ele>
        <time>2023-12-16T08:57:31Z</time>
      </trkpt>
      <trkpt lat="43.4536" lon="1.84039">
        <ele>242.60000610352</ele>
        <time>2023-12-16T08:57:33Z</time>
      </trkpt>
      <trkpt lat="43.4535" lon="1.84055">
        <ele>242.19999694824</ele>
        <time>2023-12-16T08:57:48Z</time>
      </trkpt>
      <trkpt lat="43.4534" lon="1.84071">
        <ele>242</ele>
        <time>2023-12-16T08:58:02Z</time>
      </trkpt>
      <trkpt lat="43.45329" lon="1.84085">
        <ele>241.80000305176</ele>
        <time>2023-12-16T08:58:16Z</time>
      </trkpt>
      <trkpt lat="43.45318" lon="1.8411">
        <ele>242</ele>
        <time>2023-12-16T08:58:35Z</time>
      </trkpt>
      <trkpt lat="43.45304" lon="1.8414">
        <ele>242.39999389648</ele>
        <time>2023-12-16T08:58:59Z</time>
      </trkpt>
      <trkpt lat="43.45289" lon="1.84161">
        <ele>242.39999389648</ele>
        <time>2023-12-16T08:59:18Z</time>
      </trkpt>
      <trkpt lat="43.45273" lon="1.84181">
        <ele>242.60000610352</ele>
        <time>2023-12-16T08:59:38Z</time>
      </trkpt>
      <trkpt lat="43.45258" lon="1.84203">
        <ele>243</ele>
        <time>2023-12-16T08:59:58Z</time>
      </trkpt>
      <trkpt lat="43.45245" lon="1.84224">
        <ele>243.19999694824</ele>
        <time>2023-12-16T09:00:17Z</time>
      </trkpt>
      <trkpt lat="43.45234" lon="1.84243">
        <ele>242.39999389648</ele>
        <time>2023-12-16T09:00:34Z</time>
      </trkpt>
      <trkpt lat="43.45223" lon="1.84263">
        <ele>242</ele>
        <time>2023-12-16T09:00:50Z</time>
      </trkpt>
      <trkpt lat="43.4521" lon="1.84285">
        <ele>242.19999694824</ele>
        <time>2023-12-16T09:01:09Z</time>
      </trkpt>
      <trkpt lat="43.45198" lon="1.84308">
        <ele>242</ele>
        <time>2023-12-16T09:01:29Z</time>
      </trkpt>
      <trkpt lat="43.45185" lon="1.84331">
        <ele>241.60000610352</ele>
        <time>2023-12-16T09:01:49Z</time>
      </trkpt>
      <trkpt lat="43.45173" lon="1.8435">
        <ele>241.60000610352</ele>
        <time>2023-12-16T09:02:06Z</time>
      </trkpt>
      <trkpt lat="43.45164" lon="1.84368">
        <ele>241</ele>
        <time>2023-12-16T09:02:22Z</time>
      </trkpt>
      <trkpt lat="43.4516" lon="1.84373">
        <ele>241</ele>
        <time>2023-12-16T09:02:27Z</time>
      </trkpt>
      <trkpt lat="43.45158" lon="1.84376">
        <ele>241</ele>
        <time>2023-12-16T09:02:30Z</time>
      </trkpt>
      <trkpt lat="43.45157" lon="1.8438">
        <ele>240.80000305176</ele>
        <time>2023-12-16T09:02:33Z</time>
      </trkpt>
      <trkpt lat="43.45149" lon="1.84396">
        <ele>240.80000305176</ele>
        <time>2023-12-16T09:02:47Z</time>
      </trkpt>
      <trkpt lat="43.4514" lon="1.84416">
        <ele>240.60000610352</ele>
        <time>2023-12-16T09:03:03Z</time>
      </trkpt>
      <trkpt lat="43.45125" lon="1.84435">
        <ele>240.19999694824</ele>
        <time>2023-12-16T09:03:22Z</time>
      </trkpt>
      <trkpt lat="43.45122" lon="1.84437">
        <ele>240.19999694824</ele>
        <time>2023-12-16T09:03:26Z</time>
      </trkpt>
      <trkpt lat="43.45108" lon="1.84442">
        <ele>240.19999694824</ele>
        <time>2023-12-16T09:03:40Z</time>
      </trkpt>
      <trkpt lat="43.45105" lon="1.84445">
        <ele>240</ele>
        <time>2023-12-16T09:03:44Z</time>
      </trkpt>
      <trkpt lat="43.451" lon="1.84458">
        <ele>240</ele>
        <time>2023-12-16T09:04:00Z</time>
      </trkpt>
      <trkpt lat="43.45091" lon="1.84492">
        <ele>240.19999694824</ele>
        <time>2023-12-16T09:04:28Z</time>
      </trkpt>
      <trkpt lat="43.4508" lon="1.8452">
        <ele>240.80000305176</ele>
        <time>2023-12-16T09:04:53Z</time>
      </trkpt>
      <trkpt lat="43.45073" lon="1.84542">
        <ele>241</ele>
        <time>2023-12-16T09:05:10Z</time>
      </trkpt>
      <trkpt lat="43.45073" lon="1.84544">
        <ele>241</ele>
        <time>2023-12-16T09:05:12Z</time>
      </trkpt>
      <trkpt lat="43.45069" lon="1.84559">
        <ele>241.39999389648</ele>
        <time>2023-12-16T09:05:22Z</time>
      </trkpt>
      <trkpt lat="43.45069" lon="1.84564">
        <ele>241.60000610352</ele>
        <time>2023-12-16T09:05:26Z</time>
      </trkpt>
      <trkpt lat="43.45065" lon="1.8459">
        <ele>242</ele>
        <time>2023-12-16T09:05:43Z</time>
      </trkpt>
      <trkpt lat="43.45066" lon="1.84608">
        <ele>242.39999389648</ele>
        <time>2023-12-16T09:05:55Z</time>
      </trkpt>
      <trkpt lat="43.45067" lon="1.84625">
        <ele>242.60000610352</ele>
        <time>2023-12-16T09:06:09Z</time>
      </trkpt>
      <trkpt lat="43.45065" lon="1.84631">
        <ele>243</ele>
        <time>2023-12-16T09:06:38Z</time>
      </trkpt>
      <trkpt lat="43.45069" lon="1.84628">
        <ele>242.60000610352</ele>
        <time>2023-12-16T09:07:19Z</time>
      </trkpt>
      <trkpt lat="43.45064" lon="1.84625">
        <ele>243</ele>
        <time>2023-12-16T09:08:03Z</time>
      </trkpt>
      <trkpt lat="43.45063" lon="1.84627">
        <ele>242.80000305176</ele>
        <time>2023-12-16T09:09:03Z</time>
      </trkpt>
      <trkpt lat="43.45064" lon="1.84625">
        <ele>242.60000610352</ele>
        <time>2023-12-16T09:09:51Z</time>
      </trkpt>
      <trkpt lat="43.45066" lon="1.84626">
        <ele>242.60000610352</ele>
        <time>2023-12-16T09:10:38Z</time>
      </trkpt>
      <trkpt lat="43.45066" lon="1.84642">
        <ele>242.60000610352</ele>
        <time>2023-12-16T09:11:11Z</time>
      </trkpt>
      <trkpt lat="43.45063" lon="1.84674">
        <ele>243.39999389648</ele>
        <time>2023-12-16T09:11:37Z</time>
      </trkpt>
      <trkpt lat="43.45059" lon="1.84705">
        <ele>244</ele>
        <time>2023-12-16T09:12:02Z</time>
      </trkpt>
      <trkpt lat="43.45052" lon="1.84742">
        <ele>245.19999694824</ele>
        <time>2023-12-16T09:12:29Z</time>
      </trkpt>
      <trkpt lat="43.45048" lon="1.84773">
        <ele>246.19999694824</ele>
        <time>2023-12-16T09:12:51Z</time>
      </trkpt>
      <trkpt lat="43.45038" lon="1.84798">
        <ele>246.80000305176</ele>
        <time>2023-12-16T09:13:11Z</time>
      </trkpt>
      <trkpt lat="43.45021" lon="1.84814">
        <ele>247.80000305176</ele>
        <time>2023-12-16T09:13:30Z</time>
      </trkpt>
      <trkpt lat="43.45019" lon="1.84816">
        <ele>247.80000305176</ele>
        <time>2023-12-16T09:13:33Z</time>
      </trkpt>
      <trkpt lat="43.45005" lon="1.84832">
        <ele>248.39999389648</ele>
        <time>2023-12-16T09:13:51Z</time>
      </trkpt>
      <trkpt lat="43.44997" lon="1.84847">
        <ele>249</ele>
        <time>2023-12-16T09:14:06Z</time>
      </trkpt>
      <trkpt lat="43.44995" lon="1.84853">
        <ele>249.19999694824</ele>
        <time>2023-12-16T09:14:10Z</time>
      </trkpt>
      <trkpt lat="43.44987" lon="1.84875">
        <ele>249.60000610352</ele>
        <time>2023-12-16T09:14:27Z</time>
      </trkpt>
      <trkpt lat="43.44983" lon="1.84894">
        <ele>250.60000610352</ele>
        <time>2023-12-16T09:14:44Z</time>
      </trkpt>
      <trkpt lat="43.44978" lon="1.84911">
        <ele>251.19999694824</ele>
        <time>2023-12-16T09:14:58Z</time>
      </trkpt>
      <trkpt lat="43.44969" lon="1.84942">
        <ele>252</ele>
        <time>2023-12-16T09:15:23Z</time>
      </trkpt>
      <trkpt lat="43.44964" lon="1.84964">
        <ele>252.60000610352</ele>
        <time>2023-12-16T09:15:41Z</time>
      </trkpt>
      <trkpt lat="43.44962" lon="1.84995">
        <ele>253.60000610352</ele>
        <time>2023-12-16T09:16:07Z</time>
      </trkpt>
      <trkpt lat="43.44961" lon="1.85011">
        <ele>254.39999389648</ele>
        <time>2023-12-16T09:16:21Z</time>
      </trkpt>
      <trkpt lat="43.4496" lon="1.85015">
        <ele>254.60000610352</ele>
        <time>2023-12-16T09:16:24Z</time>
      </trkpt>
      <trkpt lat="43.44946" lon="1.85032">
        <ele>255.80000305176</ele>
        <time>2023-12-16T09:16:47Z</time>
      </trkpt>
      <trkpt lat="43.44933" lon="1.85047">
        <ele>257.20001220703</ele>
        <time>2023-12-16T09:17:06Z</time>
      </trkpt>
      <trkpt lat="43.44924" lon="1.8506">
        <ele>258.79998779297</ele>
        <time>2023-12-16T09:17:22Z</time>
      </trkpt>
      <trkpt lat="43.44912" lon="1.85077">
        <ele>261.60000610352</ele>
        <time>2023-12-16T09:17:43Z</time>
      </trkpt>
      <trkpt lat="43.44905" lon="1.85084">
        <ele>262.79998779297</ele>
        <time>2023-12-16T09:17:54Z</time>
      </trkpt>
      <trkpt lat="43.449" lon="1.85086">
        <ele>263</ele>
        <time>2023-12-16T09:17:59Z</time>
      </trkpt>
      <trkpt lat="43.44887" lon="1.851">
        <ele>265.20001220703</ele>
        <time>2023-12-16T09:18:19Z</time>
      </trkpt>
      <trkpt lat="43.44875" lon="1.85108">
        <ele>267.20001220703</ele>
        <time>2023-12-16T09:18:40Z</time>
      </trkpt>
      <trkpt lat="43.44869" lon="1.85106">
        <ele>267.20001220703</ele>
        <time>2023-12-16T09:19:05Z</time>
      </trkpt>
      <trkpt lat="43.4486" lon="1.85099">
        <ele>267.20001220703</ele>
        <time>2023-12-16T09:19:31Z</time>
      </trkpt>
      <trkpt lat="43.44857" lon="1.85099">
        <ele>267.20001220703</ele>
        <time>2023-12-16T09:19:35Z</time>
      </trkpt>
      <trkpt lat="43.44854" lon="1.85097">
        <ele>267.20001220703</ele>
        <time>2023-12-16T09:19:37Z</time>
      </trkpt>
      <trkpt lat="43.44851" lon="1.85095">
        <ele>267.20001220703</ele>
        <time>2023-12-16T09:19:40Z</time>
      </trkpt>
      <trkpt lat="43.44849" lon="1.85095">
        <ele>267.20001220703</ele>
        <time>2023-12-16T09:19:43Z</time>
      </trkpt>
      <trkpt lat="43.44838" lon="1.85089">
        <ele>268.60000610352</ele>
        <time>2023-12-16T09:20:01Z</time>
      </trkpt>
      <trkpt lat="43.44826" lon="1.85082">
        <ele>271.20001220703</ele>
        <time>2023-12-16T09:20:23Z</time>
      </trkpt>
      <trkpt lat="43.44816" lon="1.85074">
        <ele>273.60000610352</ele>
        <time>2023-12-16T09:20:42Z</time>
      </trkpt>
      <trkpt lat="43.44798" lon="1.85068">
        <ele>276.60000610352</ele>
        <time>2023-12-16T09:21:06Z</time>
      </trkpt>
      <trkpt lat="43.44781" lon="1.8506">
        <ele>279.20001220703</ele>
        <time>2023-12-16T09:21:33Z</time>
      </trkpt>
      <trkpt lat="43.44767" lon="1.85054">
        <ele>281.20001220703</ele>
        <time>2023-12-16T09:21:53Z</time>
      </trkpt>
      <trkpt lat="43.44748" lon="1.85043">
        <ele>284.39999389648</ele>
        <time>2023-12-16T09:22:17Z</time>
      </trkpt>
      <trkpt lat="43.44739" lon="1.85038">
        <ele>286.39999389648</ele>
        <time>2023-12-16T09:22:29Z</time>
      </trkpt>
      <trkpt lat="43.44733" lon="1.8503">
        <ele>287.39999389648</ele>
        <time>2023-12-16T09:22:47Z</time>
      </trkpt>
      <trkpt lat="43.44733" lon="1.85015">
        <ele>287.20001220703</ele>
        <time>2023-12-16T09:23:05Z</time>
      </trkpt>
      <trkpt lat="43.44735" lon="1.85004">
        <ele>287</ele>
        <time>2023-12-16T09:23:18Z</time>
      </trkpt>
      <trkpt lat="43.44737" lon="1.84991">
        <ele>286.79998779297</ele>
        <time>2023-12-16T09:23:33Z</time>
      </trkpt>
      <trkpt lat="43.44738" lon="1.8499">
        <ele>286.60000610352</ele>
        <time>2023-12-16T09:23:54Z</time>
      </trkpt>
      <trkpt lat="43.44737" lon="1.84989">
        <ele>286.60000610352</ele>
        <time>2023-12-16T09:24:27Z</time>
      </trkpt>
      <trkpt lat="43.44738" lon="1.8499">
        <ele>286.39999389648</ele>
        <time>2023-12-16T09:25:06Z</time>
      </trkpt>
      <trkpt lat="43.44738" lon="1.8499">
        <ele>286.20001220703</ele>
        <time>2023-12-16T09:25:08Z</time>
      </trkpt>
      <trkpt lat="43.44737" lon="1.84969">
        <ele>286.60000610352</ele>
        <time>2023-12-16T09:33:19Z</time>
      </trkpt>
      <trkpt lat="43.4474" lon="1.84961">
        <ele>286.39999389648</ele>
        <time>2023-12-16T09:33:28Z</time>
      </trkpt>
      <trkpt lat="43.44753" lon="1.84929">
        <ele>284.39999389648</ele>
        <time>2023-12-16T09:33:52Z</time>
      </trkpt>
      <trkpt lat="43.44754" lon="1.84926">
        <ele>284</ele>
        <time>2023-12-16T09:33:54Z</time>
      </trkpt>
      <trkpt lat="43.44754" lon="1.84924">
        <ele>283.60000610352</ele>
        <time>2023-12-16T09:33:56Z</time>
      </trkpt>
      <trkpt lat="43.44759" lon="1.84907">
        <ele>281.39999389648</ele>
        <time>2023-12-16T09:34:11Z</time>
      </trkpt>
      <trkpt lat="43.4476" lon="1.84905">
        <ele>281.20001220703</ele>
        <time>2023-12-16T09:34:13Z</time>
      </trkpt>
      <trkpt lat="43.44762" lon="1.84899">
        <ele>280.60000610352</ele>
        <time>2023-12-16T09:34:20Z</time>
      </trkpt>
      <trkpt lat="43.44765" lon="1.84889">
        <ele>280.20001220703</ele>
        <time>2023-12-16T09:34:31Z</time>
      </trkpt>
      <trkpt lat="43.44769" lon="1.84873">
        <ele>279</ele>
        <time>2023-12-16T09:34:49Z</time>
      </trkpt>
      <trkpt lat="43.44776" lon="1.84854">
        <ele>278.20001220703</ele>
        <time>2023-12-16T09:35:05Z</time>
      </trkpt>
      <trkpt lat="43.44782" lon="1.84836">
        <ele>277.79998779297</ele>
        <time>2023-12-16T09:35:19Z</time>
      </trkpt>
      <trkpt lat="43.44784" lon="1.84824">
        <ele>277.60000610352</ele>
        <time>2023-12-16T09:35:28Z</time>
      </trkpt>
      <trkpt lat="43.44791" lon="1.848">
        <ele>277</ele>
        <time>2023-12-16T09:35:46Z</time>
      </trkpt>
      <trkpt lat="43.44793" lon="1.84795">
        <ele>276.79998779297</ele>
        <time>2023-12-16T09:35:51Z</time>
      </trkpt>
      <trkpt lat="43.44796" lon="1.84786">
        <ele>276.39999389648</ele>
        <time>2023-12-16T09:35:58Z</time>
      </trkpt>
      <trkpt lat="43.44794" lon="1.84772">
        <ele>275.39999389648</ele>
        <time>2023-12-16T09:36:08Z</time>
      </trkpt>
      <trkpt lat="43.44791" lon="1.84746">
        <ele>272.20001220703</ele>
        <time>2023-12-16T09:36:29Z</time>
      </trkpt>
      <trkpt lat="43.4479" lon="1.84714">
        <ele>269.60000610352</ele>
        <time>2023-12-16T09:36:52Z</time>
      </trkpt>
      <trkpt lat="43.4479" lon="1.84709">
        <ele>269</ele>
        <time>2023-12-16T09:36:56Z</time>
      </trkpt>
      <trkpt lat="43.44791" lon="1.84703">
        <ele>268.60000610352</ele>
        <time>2023-12-16T09:37:00Z</time>
      </trkpt>
      <trkpt lat="43.44792" lon="1.84682">
        <ele>267</ele>
        <time>2023-12-16T09:37:15Z</time>
      </trkpt>
      <trkpt lat="43.44794" lon="1.84661">
        <ele>264.79998779297</ele>
        <time>2023-12-16T09:37:31Z</time>
      </trkpt>
      <trkpt lat="43.44797" lon="1.8464">
        <ele>262.20001220703</ele>
        <time>2023-12-16T09:37:48Z</time>
      </trkpt>
      <trkpt lat="43.44802" lon="1.84616">
        <ele>258.79998779297</ele>
        <time>2023-12-16T09:38:07Z</time>
      </trkpt>
      <trkpt lat="43.44805" lon="1.84598">
        <ele>257</ele>
        <time>2023-12-16T09:38:21Z</time>
      </trkpt>
      <trkpt lat="43.44805" lon="1.84597">
        <ele>256.79998779297</ele>
        <time>2023-12-16T09:38:22Z</time>
      </trkpt>
      <trkpt lat="43.44807" lon="1.84577">
        <ele>255.19999694824</ele>
        <time>2023-12-16T09:38:38Z</time>
      </trkpt>
      <trkpt lat="43.44808" lon="1.84555">
        <ele>253.80000305176</ele>
        <time>2023-12-16T09:38:55Z</time>
      </trkpt>
      <trkpt lat="43.44813" lon="1.84522">
        <ele>251.19999694824</ele>
        <time>2023-12-16T09:39:19Z</time>
      </trkpt>
      <trkpt lat="43.44818" lon="1.84486">
        <ele>248.19999694824</ele>
        <time>2023-12-16T09:39:45Z</time>
      </trkpt>
      <trkpt lat="43.44821" lon="1.84457">
        <ele>246</ele>
        <time>2023-12-16T09:40:05Z</time>
      </trkpt>
      <trkpt lat="43.44824" lon="1.84429">
        <ele>243.60000610352</ele>
        <time>2023-12-16T09:40:24Z</time>
      </trkpt>
      <trkpt lat="43.44828" lon="1.84397">
        <ele>241.39999389648</ele>
        <time>2023-12-16T09:40:45Z</time>
      </trkpt>
      <trkpt lat="43.44831" lon="1.84362">
        <ele>238.39999389648</ele>
        <time>2023-12-16T09:41:09Z</time>
      </trkpt>
      <trkpt lat="43.44836" lon="1.84325">
        <ele>235.39999389648</ele>
        <time>2023-12-16T09:41:34Z</time>
      </trkpt>
      <trkpt lat="43.4484" lon="1.84286">
        <ele>232.39999389648</ele>
        <time>2023-12-16T09:42:00Z</time>
      </trkpt>
      <trkpt lat="43.44843" lon="1.8425">
        <ele>230.19999694824</ele>
        <time>2023-12-16T09:42:24Z</time>
      </trkpt>
      <trkpt lat="43.44841" lon="1.8422">
        <ele>228.39999389648</ele>
        <time>2023-12-16T09:42:46Z</time>
      </trkpt>
      <trkpt lat="43.44836" lon="1.84191">
        <ele>227.19999694824</ele>
        <time>2023-12-16T09:43:08Z</time>
      </trkpt>
      <trkpt lat="43.44832" lon="1.84181">
        <ele>226</ele>
        <time>2023-12-16T09:43:22Z</time>
      </trkpt>
      <trkpt lat="43.44833" lon="1.84185">
        <ele>225.80000305176</ele>
        <time>2023-12-16T09:43:39Z</time>
      </trkpt>
      <trkpt lat="43.44834" lon="1.84187">
        <ele>225.80000305176</ele>
        <time>2023-12-16T09:43:41Z</time>
      </trkpt>
      <trkpt lat="43.44836" lon="1.8419">
        <ele>226.39999389648</ele>
        <time>2023-12-16T09:43:58Z</time>
      </trkpt>
      <trkpt lat="43.44835" lon="1.84188">
        <ele>226.39999389648</ele>
        <time>2023-12-16T09:44:00Z</time>
      </trkpt>
      <trkpt lat="43.44834" lon="1.84186">
        <ele>226.39999389648</ele>
        <time>2023-12-16T09:44:02Z</time>
      </trkpt>
      <trkpt lat="43.44832" lon="1.8418">
        <ele>226.39999389648</ele>
        <time>2023-12-16T09:44:06Z</time>
      </trkpt>
      <trkpt lat="43.44834" lon="1.84176">
        <ele>225.60000610352</ele>
        <time>2023-12-16T09:44:25Z</time>
      </trkpt>
      <trkpt lat="43.44834" lon="1.84174">
        <ele>225.60000610352</ele>
        <time>2023-12-16T09:44:43Z</time>
      </trkpt>
      <trkpt lat="43.44836" lon="1.84159">
        <ele>225.39999389648</ele>
        <time>2023-12-16T09:44:57Z</time>
      </trkpt>
      <trkpt lat="43.44838" lon="1.84152">
        <ele>225</ele>
        <time>2023-12-16T09:45:02Z</time>
      </trkpt>
      <trkpt lat="43.44841" lon="1.84141">
        <ele>225</ele>
        <time>2023-12-16T09:45:10Z</time>
      </trkpt>
      <trkpt lat="43.44847" lon="1.84127">
        <ele>224.80000305176</ele>
        <time>2023-12-16T09:45:21Z</time>
      </trkpt>
      <trkpt lat="43.44849" lon="1.84118">
        <ele>224.80000305176</ele>
        <time>2023-12-16T09:45:26Z</time>
      </trkpt>
      <trkpt lat="43.44852" lon="1.84101">
        <ele>224.80000305176</ele>
        <time>2023-12-16T09:45:37Z</time>
      </trkpt>
      <trkpt lat="43.4486" lon="1.8408">
        <ele>224.80000305176</ele>
        <time>2023-12-16T09:45:52Z</time>
      </trkpt>
      <trkpt lat="43.44862" lon="1.84073">
        <ele>224.80000305176</ele>
        <time>2023-12-16T09:45:57Z</time>
      </trkpt>
      <trkpt lat="43.44867" lon="1.84058">
        <ele>224.80000305176</ele>
        <time>2023-12-16T09:46:08Z</time>
      </trkpt>
      <trkpt lat="43.44876" lon="1.84029">
        <ele>224.60000610352</ele>
        <time>2023-12-16T09:46:28Z</time>
      </trkpt>
      <trkpt lat="43.44888" lon="1.83996">
        <ele>224.80000305176</ele>
        <time>2023-12-16T09:46:53Z</time>
      </trkpt>
      <trkpt lat="43.44889" lon="1.83992">
        <ele>224.80000305176</ele>
        <time>2023-12-16T09:46:56Z</time>
      </trkpt>
      <trkpt lat="43.44892" lon="1.83984">
        <ele>224.80000305176</ele>
        <time>2023-12-16T09:47:02Z</time>
      </trkpt>
      <trkpt lat="43.44893" lon="1.83979">
        <ele>224.80000305176</ele>
        <time>2023-12-16T09:47:05Z</time>
      </trkpt>
      <trkpt lat="43.44892" lon="1.83975">
        <ele>224.80000305176</ele>
        <time>2023-12-16T09:47:07Z</time>
      </trkpt>
      <trkpt lat="43.44894" lon="1.8397">
        <ele>224.80000305176</ele>
        <time>2023-12-16T09:47:11Z</time>
      </trkpt>
      <trkpt lat="43.44907" lon="1.83932">
        <ele>225</ele>
        <time>2023-12-16T09:47:37Z</time>
      </trkpt>
      <trkpt lat="43.44915" lon="1.83905">
        <ele>225.19999694824</ele>
        <time>2023-12-16T09:47:56Z</time>
      </trkpt>
      <trkpt lat="43.44915" lon="1.839">
        <ele>225</ele>
        <time>2023-12-16T09:48:10Z</time>
      </trkpt>
      <trkpt lat="43.44909" lon="1.83901">
        <ele>225</ele>
        <time>2023-12-16T09:48:31Z</time>
      </trkpt>
      <trkpt lat="43.44902" lon="1.83897">
        <ele>225</ele>
        <time>2023-12-16T09:48:39Z</time>
      </trkpt>
      <trkpt lat="43.44889" lon="1.83879">
        <ele>224.19999694824</ele>
        <time>2023-12-16T09:48:57Z</time>
      </trkpt>
      <trkpt lat="43.44879" lon="1.83866">
        <ele>224</ele>
        <time>2023-12-16T09:49:11Z</time>
      </trkpt>
      <trkpt lat="43.44878" lon="1.83865">
        <ele>223.80000305176</ele>
        <time>2023-12-16T09:49:13Z</time>
      </trkpt>
      <trkpt lat="43.44867" lon="1.83848">
        <ele>223.60000610352</ele>
        <time>2023-12-16T09:49:34Z</time>
      </trkpt>
      <trkpt lat="43.44866" lon="1.83845">
        <ele>223.60000610352</ele>
        <time>2023-12-16T09:49:56Z</time>
      </trkpt>
      <trkpt lat="43.44863" lon="1.83841">
        <ele>223.60000610352</ele>
        <time>2023-12-16T09:50:21Z</time>
      </trkpt>
      <trkpt lat="43.44862" lon="1.8384">
        <ele>223.60000610352</ele>
        <time>2023-12-16T09:50:37Z</time>
      </trkpt>
      <trkpt lat="43.44861" lon="1.83839">
        <ele>223.60000610352</ele>
        <time>2023-12-16T09:51:26Z</time>
      </trkpt>
      <trkpt lat="43.44855" lon="1.83839">
        <ele>223.60000610352</ele>
        <time>2023-12-16T09:51:39Z</time>
      </trkpt>
      <trkpt lat="43.4485" lon="1.83838">
        <ele>223.60000610352</ele>
        <time>2023-12-16T09:52:09Z</time>
      </trkpt>
      <trkpt lat="43.44849" lon="1.83839">
        <ele>223.60000610352</ele>
        <time>2023-12-16T09:52:10Z</time>
      </trkpt>
      <trkpt lat="43.44828" lon="1.8385">
        <ele>223.60000610352</ele>
        <time>2023-12-16T09:52:32Z</time>
      </trkpt>
      <trkpt lat="43.44812" lon="1.83857">
        <ele>224.19999694824</ele>
        <time>2023-12-16T09:52:47Z</time>
      </trkpt>
      <trkpt lat="43.44797" lon="1.83869">
        <ele>225</ele>
        <time>2023-12-16T09:53:02Z</time>
      </trkpt>
      <trkpt lat="43.44785" lon="1.83884">
        <ele>225.80000305176</ele>
        <time>2023-12-16T09:53:17Z</time>
      </trkpt>
      <trkpt lat="43.44773" lon="1.83904">
        <ele>226.60000610352</ele>
        <time>2023-12-16T09:53:34Z</time>
      </trkpt>
      <trkpt lat="43.44759" lon="1.83926">
        <ele>227.60000610352</ele>
        <time>2023-12-16T09:53:53Z</time>
      </trkpt>
      <trkpt lat="43.44746" lon="1.83947">
        <ele>229</ele>
        <time>2023-12-16T09:54:13Z</time>
      </trkpt>
      <trkpt lat="43.44733" lon="1.83965">
        <ele>230</ele>
        <time>2023-12-16T09:54:30Z</time>
      </trkpt>
      <trkpt lat="43.44718" lon="1.83983">
        <ele>231</ele>
        <time>2023-12-16T09:54:49Z</time>
      </trkpt>
      <trkpt lat="43.44703" lon="1.84001">
        <ele>232.39999389648</ele>
        <time>2023-12-16T09:55:08Z</time>
      </trkpt>
      <trkpt lat="43.44687" lon="1.84018">
        <ele>233.60000610352</ele>
        <time>2023-12-16T09:55:28Z</time>
      </trkpt>
      <trkpt lat="43.44667" lon="1.8404">
        <ele>235.39999389648</ele>
        <time>2023-12-16T09:55:53Z</time>
      </trkpt>
      <trkpt lat="43.44647" lon="1.8406">
        <ele>236.19999694824</ele>
        <time>2023-12-16T09:56:16Z</time>
      </trkpt>
      <trkpt lat="43.44627" lon="1.84083">
        <ele>237.19999694824</ele>
        <time>2023-12-16T09:56:41Z</time>
      </trkpt>
      <trkpt lat="43.44612" lon="1.841">
        <ele>238.19999694824</ele>
        <time>2023-12-16T09:57:00Z</time>
      </trkpt>
      <trkpt lat="43.44597" lon="1.84118">
        <ele>239</ele>
        <time>2023-12-16T09:57:18Z</time>
      </trkpt>
      <trkpt lat="43.44581" lon="1.84137">
        <ele>239.39999389648</ele>
        <time>2023-12-16T09:57:39Z</time>
      </trkpt>
      <trkpt lat="43.44567" lon="1.84152">
        <ele>239.80000305176</ele>
        <time>2023-12-16T09:57:56Z</time>
      </trkpt>
      <trkpt lat="43.44554" lon="1.84165">
        <ele>240.19999694824</ele>
        <time>2023-12-16T09:58:12Z</time>
      </trkpt>
      <trkpt lat="43.44542" lon="1.84181">
        <ele>240.39999389648</ele>
        <time>2023-12-16T09:58:29Z</time>
      </trkpt>
      <trkpt lat="43.44529" lon="1.84181">
        <ele>241.19999694824</ele>
        <time>2023-12-16T09:58:46Z</time>
      </trkpt>
      <trkpt lat="43.44518" lon="1.84168">
        <ele>242.19999694824</ele>
        <time>2023-12-16T09:59:06Z</time>
      </trkpt>
      <trkpt lat="43.44505" lon="1.8415">
        <ele>243</ele>
        <time>2023-12-16T09:59:26Z</time>
      </trkpt>
      <trkpt lat="43.44499" lon="1.84141">
        <ele>243.39999389648</ele>
        <time>2023-12-16T09:59:36Z</time>
      </trkpt>
      <trkpt lat="43.44495" lon="1.84136">
        <ele>244</ele>
        <time>2023-12-16T09:59:43Z</time>
      </trkpt>
      <trkpt lat="43.44492" lon="1.84132">
        <ele>244.19999694824</ele>
        <time>2023-12-16T09:59:47Z</time>
      </trkpt>
      <trkpt lat="43.44484" lon="1.8412">
        <ele>246</ele>
        <time>2023-12-16T10:00:04Z</time>
      </trkpt>
      <trkpt lat="43.4448" lon="1.84103">
        <ele>247.80000305176</ele>
        <time>2023-12-16T10:00:20Z</time>
      </trkpt>
      <trkpt lat="43.44479" lon="1.84082">
        <ele>250.60000610352</ele>
        <time>2023-12-16T10:00:41Z</time>
      </trkpt>
      <trkpt lat="43.44486" lon="1.84058">
        <ele>253</ele>
        <time>2023-12-16T10:01:06Z</time>
      </trkpt>
      <trkpt lat="43.44492" lon="1.84037">
        <ele>254.80000305176</ele>
        <time>2023-12-16T10:01:25Z</time>
      </trkpt>
      <trkpt lat="43.44498" lon="1.84016">
        <ele>256.60000610352</ele>
        <time>2023-12-16T10:01:46Z</time>
      </trkpt>
      <trkpt lat="43.44495" lon="1.84001">
        <ele>258</ele>
        <time>2023-12-16T10:02:04Z</time>
      </trkpt>
      <trkpt lat="43.44487" lon="1.84001">
        <ele>259.79998779297</ele>
        <time>2023-12-16T10:02:20Z</time>
      </trkpt>
      <trkpt lat="43.44481" lon="1.84015">
        <ele>261.20001220703</ele>
        <time>2023-12-16T10:02:38Z</time>
      </trkpt>
      <trkpt lat="43.44479" lon="1.84026">
        <ele>261.79998779297</ele>
        <time>2023-12-16T10:02:52Z</time>
      </trkpt>
      <trkpt lat="43.44475" lon="1.84032">
        <ele>262.20001220703</ele>
        <time>2023-12-16T10:03:07Z</time>
      </trkpt>
      <trkpt lat="43.44475" lon="1.84031">
        <ele>262.39999389648</ele>
        <time>2023-12-16T10:03:58Z</time>
      </trkpt>
      <trkpt lat="43.44476" lon="1.84033">
        <ele>262.20001220703</ele>
        <time>2023-12-16T10:04:42Z</time>
      </trkpt>
      <trkpt lat="43.44473" lon="1.84039">
        <ele>262.39999389648</ele>
        <time>2023-12-16T10:05:09Z</time>
      </trkpt>
      <trkpt lat="43.4447" lon="1.84042">
        <ele>262.39999389648</ele>
        <time>2023-12-16T10:05:13Z</time>
      </trkpt>
      <trkpt lat="43.44458" lon="1.84057">
        <ele>263</ele>
        <time>2023-12-16T10:05:32Z</time>
      </trkpt>
      <trkpt lat="43.44446" lon="1.8407">
        <ele>263.79998779297</ele>
        <time>2023-12-16T10:05:49Z</time>
      </trkpt>
      <trkpt lat="43.44435" lon="1.84087">
        <ele>264.60000610352</ele>
        <time>2023-12-16T10:06:07Z</time>
      </trkpt>
      <trkpt lat="43.44422" lon="1.84106">
        <ele>265</ele>
        <time>2023-12-16T10:06:27Z</time>
      </trkpt>
      <trkpt lat="43.44405" lon="1.84125">
        <ele>265.39999389648</ele>
        <time>2023-12-16T10:06:49Z</time>
      </trkpt>
      <trkpt lat="43.4439" lon="1.8414">
        <ele>265.79998779297</ele>
        <time>2023-12-16T10:07:08Z</time>
      </trkpt>
      <trkpt lat="43.44375" lon="1.84154">
        <ele>266.20001220703</ele>
        <time>2023-12-16T10:07:27Z</time>
      </trkpt>
      <trkpt lat="43.4436" lon="1.84164">
        <ele>266.20001220703</ele>
        <time>2023-12-16T10:07:44Z</time>
      </trkpt>
      <trkpt lat="43.44342" lon="1.84181">
        <ele>266.39999389648</ele>
        <time>2023-12-16T10:08:04Z</time>
      </trkpt>
      <trkpt lat="43.44326" lon="1.84196">
        <ele>267.20001220703</ele>
        <time>2023-12-16T10:08:25Z</time>
      </trkpt>
      <trkpt lat="43.44312" lon="1.8421">
        <ele>267.39999389648</ele>
        <time>2023-12-16T10:08:43Z</time>
      </trkpt>
      <trkpt lat="43.44299" lon="1.84226">
        <ele>267.60000610352</ele>
        <time>2023-12-16T10:09:01Z</time>
      </trkpt>
      <trkpt lat="43.44287" lon="1.8424">
        <ele>267.79998779297</ele>
        <time>2023-12-16T10:09:19Z</time>
      </trkpt>
      <trkpt lat="43.44276" lon="1.84258">
        <ele>268.79998779297</ele>
        <time>2023-12-16T10:09:38Z</time>
      </trkpt>
      <trkpt lat="43.44266" lon="1.84275">
        <ele>269</ele>
        <time>2023-12-16T10:09:54Z</time>
      </trkpt>
      <trkpt lat="43.44256" lon="1.84288">
        <ele>269</ele>
        <time>2023-12-16T10:10:09Z</time>
      </trkpt>
      <trkpt lat="43.44243" lon="1.84296">
        <ele>269</ele>
        <time>2023-12-16T10:10:22Z</time>
      </trkpt>
      <trkpt lat="43.4423" lon="1.84292">
        <ele>269.60000610352</ele>
        <time>2023-12-16T10:10:36Z</time>
      </trkpt>
      <trkpt lat="43.44229" lon="1.84292">
        <ele>269.79998779297</ele>
        <time>2023-12-16T10:10:37Z</time>
      </trkpt>
      <trkpt lat="43.4422" lon="1.84283">
        <ele>271.39999389648</ele>
        <time>2023-12-16T10:10:52Z</time>
      </trkpt>
      <trkpt lat="43.44208" lon="1.84272">
        <ele>273</ele>
        <time>2023-12-16T10:11:11Z</time>
      </trkpt>
      <trkpt lat="43.44195" lon="1.84257">
        <ele>274.39999389648</ele>
        <time>2023-12-16T10:11:31Z</time>
      </trkpt>
      <trkpt lat="43.44193" lon="1.84256">
        <ele>274.39999389648</ele>
        <time>2023-12-16T10:11:33Z</time>
      </trkpt>
      <trkpt lat="43.44186" lon="1.84246">
        <ele>274.60000610352</ele>
        <time>2023-12-16T10:11:45Z</time>
      </trkpt>
      <trkpt lat="43.44175" lon="1.84238">
        <ele>275.20001220703</ele>
        <time>2023-12-16T10:12:01Z</time>
      </trkpt>
      <trkpt lat="43.44164" lon="1.8423">
        <ele>275.79998779297</ele>
        <time>2023-12-16T10:12:17Z</time>
      </trkpt>
      <trkpt lat="43.44149" lon="1.84232">
        <ele>277</ele>
        <time>2023-12-16T10:12:37Z</time>
      </trkpt>
      <trkpt lat="43.4413" lon="1.84254">
        <ele>279.20001220703</ele>
        <time>2023-12-16T10:13:05Z</time>
      </trkpt>
      <trkpt lat="43.44129" lon="1.84255">
        <ele>279.39999389648</ele>
        <time>2023-12-16T10:13:06Z</time>
      </trkpt>
      <trkpt lat="43.44122" lon="1.84258">
        <ele>279.39999389648</ele>
        <time>2023-12-16T10:13:13Z</time>
      </trkpt>
      <trkpt lat="43.44111" lon="1.84249">
        <ele>280</ele>
        <time>2023-12-16T10:13:27Z</time>
      </trkpt>
      <trkpt lat="43.44098" lon="1.84236">
        <ele>280.60000610352</ele>
        <time>2023-12-16T10:13:45Z</time>
      </trkpt>
      <trkpt lat="43.44085" lon="1.84224">
        <ele>282</ele>
        <time>2023-12-16T10:14:02Z</time>
      </trkpt>
      <trkpt lat="43.44074" lon="1.84213">
        <ele>282.79998779297</ele>
        <time>2023-12-16T10:14:17Z</time>
      </trkpt>
      <trkpt lat="43.44073" lon="1.84212">
        <ele>283</ele>
        <time>2023-12-16T10:14:20Z</time>
      </trkpt>
      <trkpt lat="43.4406" lon="1.84208">
        <ele>283.60000610352</ele>
        <time>2023-12-16T10:14:43Z</time>
      </trkpt>
      <trkpt lat="43.44055" lon="1.84218">
        <ele>283.79998779297</ele>
        <time>2023-12-16T10:15:01Z</time>
      </trkpt>
      <trkpt lat="43.4405" lon="1.84225">
        <ele>284</ele>
        <time>2023-12-16T10:15:10Z</time>
      </trkpt>
      <trkpt lat="43.44044" lon="1.84231">
        <ele>284.60000610352</ele>
        <time>2023-12-16T10:15:19Z</time>
      </trkpt>
      <trkpt lat="43.44037" lon="1.8424">
        <ele>285</ele>
        <time>2023-12-16T10:15:32Z</time>
      </trkpt>
      <trkpt lat="43.44025" lon="1.84255">
        <ele>286</ele>
        <time>2023-12-16T10:15:51Z</time>
      </trkpt>
      <trkpt lat="43.44022" lon="1.84259">
        <ele>286.20001220703</ele>
        <time>2023-12-16T10:15:56Z</time>
      </trkpt>
      <trkpt lat="43.4401" lon="1.84275">
        <ele>287.20001220703</ele>
        <time>2023-12-16T10:16:13Z</time>
      </trkpt>
      <trkpt lat="43.43995" lon="1.84289">
        <ele>288</ele>
        <time>2023-12-16T10:16:33Z</time>
      </trkpt>
      <trkpt lat="43.43983" lon="1.84284">
        <ele>288.60000610352</ele>
        <time>2023-12-16T10:16:53Z</time>
      </trkpt>
      <trkpt lat="43.43969" lon="1.84268">
        <ele>288.20001220703</ele>
        <time>2023-12-16T10:17:14Z</time>
      </trkpt>
      <trkpt lat="43.43964" lon="1.84259">
        <ele>287.39999389648</ele>
        <time>2023-12-16T10:17:31Z</time>
      </trkpt>
      <trkpt lat="43.43962" lon="1.8426">
        <ele>287.39999389648</ele>
        <time>2023-12-16T10:18:25Z</time>
      </trkpt>
      <trkpt lat="43.43967" lon="1.84265">
        <ele>287.39999389648</ele>
        <time>2023-12-16T10:18:34Z</time>
      </trkpt>
      <trkpt lat="43.43942" lon="1.84234">
        <ele>286.20001220703</ele>
        <time>2023-12-16T10:31:44Z</time>
      </trkpt>
      <trkpt lat="43.43936" lon="1.8423">
        <ele>285.60000610352</ele>
        <time>2023-12-16T10:32:03Z</time>
      </trkpt>
      <trkpt lat="43.43924" lon="1.84221">
        <ele>285</ele>
        <time>2023-12-16T10:32:19Z</time>
      </trkpt>
      <trkpt lat="43.43923" lon="1.8422">
        <ele>284.79998779297</ele>
        <time>2023-12-16T10:32:21Z</time>
      </trkpt>
      <trkpt lat="43.43915" lon="1.84214">
        <ele>284.39999389648</ele>
        <time>2023-12-16T10:32:30Z</time>
      </trkpt>
      <trkpt lat="43.43902" lon="1.84195">
        <ele>283</ele>
        <time>2023-12-16T10:32:49Z</time>
      </trkpt>
      <trkpt lat="43.43901" lon="1.84187">
        <ele>282.79998779297</ele>
        <time>2023-12-16T10:32:55Z</time>
      </trkpt>
      <trkpt lat="43.43901" lon="1.84155">
        <ele>281.79998779297</ele>
        <time>2023-12-16T10:33:18Z</time>
      </trkpt>
      <trkpt lat="43.439" lon="1.8412">
        <ele>281</ele>
        <time>2023-12-16T10:33:43Z</time>
      </trkpt>
      <trkpt lat="43.43899" lon="1.84081">
        <ele>279.60000610352</ele>
        <time>2023-12-16T10:34:10Z</time>
      </trkpt>
      <trkpt lat="43.439" lon="1.84051">
        <ele>277.79998779297</ele>
        <time>2023-12-16T10:34:30Z</time>
      </trkpt>
      <trkpt lat="43.43899" lon="1.84024">
        <ele>276.79998779297</ele>
        <time>2023-12-16T10:34:49Z</time>
      </trkpt>
      <trkpt lat="43.43897" lon="1.83994">
        <ele>276.20001220703</ele>
        <time>2023-12-16T10:35:09Z</time>
      </trkpt>
      <trkpt lat="43.43894" lon="1.8397">
        <ele>275.79998779297</ele>
        <time>2023-12-16T10:35:27Z</time>
      </trkpt>
      <trkpt lat="43.43891" lon="1.8394">
        <ele>274.79998779297</ele>
        <time>2023-12-16T10:35:47Z</time>
      </trkpt>
      <trkpt lat="43.43892" lon="1.83903">
        <ele>274.20001220703</ele>
        <time>2023-12-16T10:36:11Z</time>
      </trkpt>
      <trkpt lat="43.43895" lon="1.8388">
        <ele>273.79998779297</ele>
        <time>2023-12-16T10:36:28Z</time>
      </trkpt>
      <trkpt lat="43.439" lon="1.83851">
        <ele>273.39999389648</ele>
        <time>2023-12-16T10:36:49Z</time>
      </trkpt>
      <trkpt lat="43.43904" lon="1.83818">
        <ele>273.20001220703</ele>
        <time>2023-12-16T10:37:12Z</time>
      </trkpt>
      <trkpt lat="43.43912" lon="1.83789">
        <ele>272.60000610352</ele>
        <time>2023-12-16T10:37:34Z</time>
      </trkpt>
      <trkpt lat="43.4392" lon="1.83763">
        <ele>272.20001220703</ele>
        <time>2023-12-16T10:37:53Z</time>
      </trkpt>
      <trkpt lat="43.4393" lon="1.83738">
        <ele>272</ele>
        <time>2023-12-16T10:38:13Z</time>
      </trkpt>
      <trkpt lat="43.4394" lon="1.83711">
        <ele>271.60000610352</ele>
        <time>2023-12-16T10:38:34Z</time>
      </trkpt>
      <trkpt lat="43.43941" lon="1.8371">
        <ele>271.60000610352</ele>
        <time>2023-12-16T10:38:35Z</time>
      </trkpt>
      <trkpt lat="43.43952" lon="1.83674">
        <ele>271.79998779297</ele>
        <time>2023-12-16T10:39:01Z</time>
      </trkpt>
      <trkpt lat="43.43959" lon="1.83648">
        <ele>271.79998779297</ele>
        <time>2023-12-16T10:39:21Z</time>
      </trkpt>
      <trkpt lat="43.43966" lon="1.83618">
        <ele>272.39999389648</ele>
        <time>2023-12-16T10:39:43Z</time>
      </trkpt>
      <trkpt lat="43.43974" lon="1.83584">
        <ele>273</ele>
        <time>2023-12-16T10:40:08Z</time>
      </trkpt>
      <trkpt lat="43.4398" lon="1.83566">
        <ele>273</ele>
        <time>2023-12-16T10:40:24Z</time>
      </trkpt>
      <trkpt lat="43.43987" lon="1.83531">
        <ele>274.39999389648</ele>
        <time>2023-12-16T10:40:48Z</time>
      </trkpt>
      <trkpt lat="43.43993" lon="1.83501">
        <ele>274.20001220703</ele>
        <time>2023-12-16T10:41:09Z</time>
      </trkpt>
      <trkpt lat="43.43997" lon="1.83474">
        <ele>274</ele>
        <time>2023-12-16T10:41:28Z</time>
      </trkpt>
      <trkpt lat="43.44002" lon="1.83452">
        <ele>274.20001220703</ele>
        <time>2023-12-16T10:41:46Z</time>
      </trkpt>
      <trkpt lat="43.44008" lon="1.83428">
        <ele>274.20001220703</ele>
        <time>2023-12-16T10:42:04Z</time>
      </trkpt>
      <trkpt lat="43.44016" lon="1.83399">
        <ele>274.20001220703</ele>
        <time>2023-12-16T10:42:26Z</time>
      </trkpt>
      <trkpt lat="43.44024" lon="1.83373">
        <ele>273.39999389648</ele>
        <time>2023-12-16T10:42:48Z</time>
      </trkpt>
      <trkpt lat="43.4403" lon="1.8335">
        <ele>272.79998779297</ele>
        <time>2023-12-16T10:43:06Z</time>
      </trkpt>
      <trkpt lat="43.44038" lon="1.83319">
        <ele>272</ele>
        <time>2023-12-16T10:43:30Z</time>
      </trkpt>
      <trkpt lat="43.4404" lon="1.83312">
        <ele>271.60000610352</ele>
        <time>2023-12-16T10:43:36Z</time>
      </trkpt>
      <trkpt lat="43.44046" lon="1.83288">
        <ele>270.79998779297</ele>
        <time>2023-12-16T10:43:55Z</time>
      </trkpt>
      <trkpt lat="43.4405" lon="1.83267">
        <ele>270.39999389648</ele>
        <time>2023-12-16T10:44:11Z</time>
      </trkpt>
      <trkpt lat="43.44054" lon="1.83248">
        <ele>270.20001220703</ele>
        <time>2023-12-16T10:44:25Z</time>
      </trkpt>
      <trkpt lat="43.44056" lon="1.83237">
        <ele>269.79998779297</ele>
        <time>2023-12-16T10:44:39Z</time>
      </trkpt>
      <trkpt lat="43.44056" lon="1.83236">
        <ele>269.79998779297</ele>
        <time>2023-12-16T10:44:41Z</time>
      </trkpt>
      <trkpt lat="43.44057" lon="1.83229">
        <ele>269.79998779297</ele>
        <time>2023-12-16T10:44:47Z</time>
      </trkpt>
      <trkpt lat="43.44061" lon="1.83202">
        <ele>269.20001220703</ele>
        <time>2023-12-16T10:45:09Z</time>
      </trkpt>
      <trkpt lat="43.44066" lon="1.83167">
        <ele>268.39999389648</ele>
        <time>2023-12-16T10:45:36Z</time>
      </trkpt>
      <trkpt lat="43.4407" lon="1.8314">
        <ele>268</ele>
        <time>2023-12-16T10:45:56Z</time>
      </trkpt>
      <trkpt lat="43.44073" lon="1.83112">
        <ele>267.39999389648</ele>
        <time>2023-12-16T10:46:17Z</time>
      </trkpt>
      <trkpt lat="43.44077" lon="1.83081">
        <ele>266.60000610352</ele>
        <time>2023-12-16T10:46:38Z</time>
      </trkpt>
      <trkpt lat="43.4408" lon="1.83052">
        <ele>265.79998779297</ele>
        <time>2023-12-16T10:46:58Z</time>
      </trkpt>
      <trkpt lat="43.44084" lon="1.83013">
        <ele>265</ele>
        <time>2023-12-16T10:47:26Z</time>
      </trkpt>
      <trkpt lat="43.44088" lon="1.82978">
        <ele>264.39999389648</ele>
        <time>2023-12-16T10:47:50Z</time>
      </trkpt>
      <trkpt lat="43.44091" lon="1.82947">
        <ele>263.79998779297</ele>
        <time>2023-12-16T10:48:11Z</time>
      </trkpt>
      <trkpt lat="43.44093" lon="1.8292">
        <ele>263.39999389648</ele>
        <time>2023-12-16T10:48:30Z</time>
      </trkpt>
      <trkpt lat="43.44097" lon="1.82889">
        <ele>263.20001220703</ele>
        <time>2023-12-16T10:48:53Z</time>
      </trkpt>
      <trkpt lat="43.44099" lon="1.82857">
        <ele>263</ele>
        <time>2023-12-16T10:49:15Z</time>
      </trkpt>
      <trkpt lat="43.44101" lon="1.82829">
        <ele>262.79998779297</ele>
        <time>2023-12-16T10:49:36Z</time>
      </trkpt>
      <trkpt lat="43.441" lon="1.82815">
        <ele>263</ele>
        <time>2023-12-16T10:49:54Z</time>
      </trkpt>
      <trkpt lat="43.44102" lon="1.82815">
        <ele>263</ele>
        <time>2023-12-16T10:50:22Z</time>
      </trkpt>
      <trkpt lat="43.44102" lon="1.82814">
        <ele>263.20001220703</ele>
        <time>2023-12-16T10:50:48Z</time>
      </trkpt>
      <trkpt lat="43.441" lon="1.82818">
        <ele>263.20001220703</ele>
        <time>2023-12-16T10:51:06Z</time>
      </trkpt>
      <trkpt lat="43.44101" lon="1.82817">
        <ele>263.20001220703</ele>
        <time>2023-12-16T10:51:23Z</time>
      </trkpt>
      <trkpt lat="43.441" lon="1.82816">
        <ele>263.39999389648</ele>
        <time>2023-12-16T10:52:03Z</time>
      </trkpt>
      <trkpt lat="43.44101" lon="1.82814">
        <ele>263.39999389648</ele>
        <time>2023-12-16T10:52:19Z</time>
      </trkpt>
      <trkpt lat="43.44102" lon="1.82814">
        <ele>263.20001220703</ele>
        <time>2023-12-16T10:52:56Z</time>
      </trkpt>
      <trkpt lat="43.44101" lon="1.82811">
        <ele>263.60000610352</ele>
        <time>2023-12-16T10:53:14Z</time>
      </trkpt>
      <trkpt lat="43.44103" lon="1.82809">
        <ele>263.60000610352</ele>
        <time>2023-12-16T10:53:35Z</time>
      </trkpt>
      <trkpt lat="43.44103" lon="1.82806">
        <ele>263.60000610352</ele>
        <time>2023-12-16T10:53:37Z</time>
      </trkpt>
      <trkpt lat="43.44102" lon="1.82804">
        <ele>263.60000610352</ele>
        <time>2023-12-16T10:53:39Z</time>
      </trkpt>
      <trkpt lat="43.44105" lon="1.82777">
        <ele>264</ele>
        <time>2023-12-16T10:53:59Z</time>
      </trkpt>
      <trkpt lat="43.44108" lon="1.82747">
        <ele>263.79998779297</ele>
        <time>2023-12-16T10:54:19Z</time>
      </trkpt>
      <trkpt lat="43.44109" lon="1.82737">
        <ele>264</ele>
        <time>2023-12-16T10:54:25Z</time>
      </trkpt>
      <trkpt lat="43.44112" lon="1.8271">
        <ele>264.39999389648</ele>
        <time>2023-12-16T10:54:44Z</time>
      </trkpt>
      <trkpt lat="43.44115" lon="1.82689">
        <ele>264.39999389648</ele>
        <time>2023-12-16T10:55:00Z</time>
      </trkpt>
      <trkpt lat="43.44118" lon="1.82659">
        <ele>264.39999389648</ele>
        <time>2023-12-16T10:55:20Z</time>
      </trkpt>
      <trkpt lat="43.44121" lon="1.82634">
        <ele>263.79998779297</ele>
        <time>2023-12-16T10:55:37Z</time>
      </trkpt>
      <trkpt lat="43.44124" lon="1.82598">
        <ele>262.79998779297</ele>
        <time>2023-12-16T10:56:01Z</time>
      </trkpt>
      <trkpt lat="43.44127" lon="1.82561">
        <ele>261.79998779297</ele>
        <time>2023-12-16T10:56:25Z</time>
      </trkpt>
      <trkpt lat="43.4413" lon="1.8253">
        <ele>261.20001220703</ele>
        <time>2023-12-16T10:56:46Z</time>
      </trkpt>
      <trkpt lat="43.44131" lon="1.82502">
        <ele>260.39999389648</ele>
        <time>2023-12-16T10:57:07Z</time>
      </trkpt>
      <trkpt lat="43.44135" lon="1.82483">
        <ele>259.79998779297</ele>
        <time>2023-12-16T10:57:22Z</time>
      </trkpt>
      <trkpt lat="43.4414" lon="1.82459">
        <ele>259.39999389648</ele>
        <time>2023-12-16T10:57:39Z</time>
      </trkpt>
      <trkpt lat="43.44149" lon="1.82427">
        <ele>259</ele>
        <time>2023-12-16T10:58:03Z</time>
      </trkpt>
      <trkpt lat="43.44151" lon="1.82421">
        <ele>259</ele>
        <time>2023-12-16T10:58:08Z</time>
      </trkpt>
      <trkpt lat="43.44157" lon="1.82395">
        <ele>259</ele>
        <time>2023-12-16T10:58:28Z</time>
      </trkpt>
      <trkpt lat="43.44157" lon="1.82394">
        <ele>258.79998779297</ele>
        <time>2023-12-16T10:58:29Z</time>
      </trkpt>
      <trkpt lat="43.44147" lon="1.8238">
        <ele>258.60000610352</ele>
        <time>2023-12-16T10:58:46Z</time>
      </trkpt>
      <trkpt lat="43.44138" lon="1.82375">
        <ele>258.79998779297</ele>
        <time>2023-12-16T10:58:56Z</time>
      </trkpt>
      <trkpt lat="43.44122" lon="1.82366">
        <ele>259.60000610352</ele>
        <time>2023-12-16T10:59:14Z</time>
      </trkpt>
      <trkpt lat="43.44122" lon="1.82363">
        <ele>259.60000610352</ele>
        <time>2023-12-16T10:59:16Z</time>
      </trkpt>
      <trkpt lat="43.4413" lon="1.82338">
        <ele>259.79998779297</ele>
        <time>2023-12-16T10:59:35Z</time>
      </trkpt>
      <trkpt lat="43.44136" lon="1.82319">
        <ele>259</ele>
        <time>2023-12-16T10:59:52Z</time>
      </trkpt>
      <trkpt lat="43.44133" lon="1.82315">
        <ele>258.79998779297</ele>
        <time>2023-12-16T10:59:57Z</time>
      </trkpt>
      <trkpt lat="43.44123" lon="1.82301">
        <ele>258.79998779297</ele>
        <time>2023-12-16T11:00:17Z</time>
      </trkpt>
      <trkpt lat="43.44123" lon="1.82296">
        <ele>258.60000610352</ele>
        <time>2023-12-16T11:00:22Z</time>
      </trkpt>
      <trkpt lat="43.44127" lon="1.82278">
        <ele>258.20001220703</ele>
        <time>2023-12-16T11:00:39Z</time>
      </trkpt>
      <trkpt lat="43.44137" lon="1.82248">
        <ele>257.39999389648</ele>
        <time>2023-12-16T11:01:07Z</time>
      </trkpt>
      <trkpt lat="43.4414" lon="1.82225">
        <ele>257.20001220703</ele>
        <time>2023-12-16T11:01:27Z</time>
      </trkpt>
      <trkpt lat="43.44147" lon="1.82208">
        <ele>256.79998779297</ele>
        <time>2023-12-16T11:01:49Z</time>
      </trkpt>
      <trkpt lat="43.44149" lon="1.82197">
        <ele>256.60000610352</ele>
        <time>2023-12-16T11:02:05Z</time>
      </trkpt>
      <trkpt lat="43.4415" lon="1.82181">
        <ele>256.39999389648</ele>
        <time>2023-12-16T11:02:24Z</time>
      </trkpt>
      <trkpt lat="43.4415" lon="1.82182">
        <ele>256.20001220703</ele>
        <time>2023-12-16T11:02:41Z</time>
      </trkpt>
      <trkpt lat="43.4415" lon="1.82185">
        <ele>256.20001220703</ele>
        <time>2023-12-16T11:02:58Z</time>
      </trkpt>
      <trkpt lat="43.44151" lon="1.82191">
        <ele>256.39999389648</ele>
        <time>2023-12-16T11:03:13Z</time>
      </trkpt>
      <trkpt lat="43.44149" lon="1.82195">
        <ele>256.60000610352</ele>
        <time>2023-12-16T11:03:35Z</time>
      </trkpt>
      <trkpt lat="43.44147" lon="1.82194">
        <ele>256.79998779297</ele>
        <time>2023-12-16T11:04:00Z</time>
      </trkpt>
      <trkpt lat="43.44147" lon="1.82193">
        <ele>256.79998779297</ele>
        <time>2023-12-16T11:04:21Z</time>
      </trkpt>
      <trkpt lat="43.44147" lon="1.82196">
        <ele>256.79998779297</ele>
        <time>2023-12-16T11:04:41Z</time>
      </trkpt>
      <trkpt lat="43.44146" lon="1.82197">
        <ele>257.20001220703</ele>
        <time>2023-12-16T11:05:12Z</time>
      </trkpt>
      <trkpt lat="43.44147" lon="1.82198">
        <ele>257</ele>
        <time>2023-12-16T11:05:24Z</time>
      </trkpt>
      <trkpt lat="43.44149" lon="1.82201">
        <ele>257</ele>
        <time>2023-12-16T11:05:45Z</time>
      </trkpt>
      <trkpt lat="43.44151" lon="1.82197">
        <ele>257.60000610352</ele>
        <time>2023-12-16T11:06:11Z</time>
      </trkpt>
      <trkpt lat="43.44148" lon="1.82195">
        <ele>257.60000610352</ele>
        <time>2023-12-16T11:06:35Z</time>
      </trkpt>
      <trkpt lat="43.44148" lon="1.82187">
        <ele>257.79998779297</ele>
        <time>2023-12-16T11:06:56Z</time>
      </trkpt>
      <trkpt lat="43.44148" lon="1.82185">
        <ele>257.60000610352</ele>
        <time>2023-12-16T11:07:18Z</time>
      </trkpt>
      <trkpt lat="43.44144" lon="1.82187">
        <ele>257.60000610352</ele>
        <time>2023-12-16T11:07:35Z</time>
      </trkpt>
      <trkpt lat="43.44145" lon="1.82187">
        <ele>257.60000610352</ele>
        <time>2023-12-16T11:07:39Z</time>
      </trkpt>
      <trkpt lat="43.44143" lon="1.82182">
        <ele>261.79998779297</ele>
        <time>2023-12-16T11:54:22Z</time>
      </trkpt>
      <trkpt lat="43.44151" lon="1.82189">
        <ele>262.20001220703</ele>
        <time>2023-12-16T11:54:40Z</time>
      </trkpt>
      <trkpt lat="43.44154" lon="1.82189">
        <ele>262.39999389648</ele>
        <time>2023-12-16T11:55:30Z</time>
      </trkpt>
      <trkpt lat="43.44158" lon="1.82192">
        <ele>262.39999389648</ele>
        <time>2023-12-16T11:56:00Z</time>
      </trkpt>
      <trkpt lat="43.44162" lon="1.82194">
        <ele>262.39999389648</ele>
        <time>2023-12-16T11:56:13Z</time>
      </trkpt>
      <trkpt lat="43.44167" lon="1.82189">
        <ele>262.60000610352</ele>
        <time>2023-12-16T11:56:28Z</time>
      </trkpt>
      <trkpt lat="43.44169" lon="1.82181">
        <ele>262.39999389648</ele>
        <time>2023-12-16T11:56:36Z</time>
      </trkpt>
      <trkpt lat="43.44171" lon="1.82178">
        <ele>262.39999389648</ele>
        <time>2023-12-16T11:56:39Z</time>
      </trkpt>
      <trkpt lat="43.4418" lon="1.82156">
        <ele>261.60000610352</ele>
        <time>2023-12-16T11:56:58Z</time>
      </trkpt>
      <trkpt lat="43.44183" lon="1.82147">
        <ele>261.39999389648</ele>
        <time>2023-12-16T11:57:06Z</time>
      </trkpt>
      <trkpt lat="43.44186" lon="1.82136">
        <ele>261.20001220703</ele>
        <time>2023-12-16T11:57:13Z</time>
      </trkpt>
      <trkpt lat="43.44192" lon="1.82117">
        <ele>260.60000610352</ele>
        <time>2023-12-16T11:57:28Z</time>
      </trkpt>
      <trkpt lat="43.44192" lon="1.82114">
        <ele>260.39999389648</ele>
        <time>2023-12-16T11:57:30Z</time>
      </trkpt>
      <trkpt lat="43.442" lon="1.82098">
        <ele>260.20001220703</ele>
        <time>2023-12-16T11:57:43Z</time>
      </trkpt>
      <trkpt lat="43.44209" lon="1.82077">
        <ele>259.39999389648</ele>
        <time>2023-12-16T11:58:00Z</time>
      </trkpt>
      <trkpt lat="43.44209" lon="1.82072">
        <ele>259.39999389648</ele>
        <time>2023-12-16T11:58:02Z</time>
      </trkpt>
      <trkpt lat="43.44212" lon="1.82066">
        <ele>259</ele>
        <time>2023-12-16T11:58:07Z</time>
      </trkpt>
      <trkpt lat="43.4422" lon="1.82045">
        <ele>258</ele>
        <time>2023-12-16T11:58:22Z</time>
      </trkpt>
      <trkpt lat="43.44232" lon="1.8202">
        <ele>257</ele>
        <time>2023-12-16T11:58:42Z</time>
      </trkpt>
      <trkpt lat="43.4424" lon="1.81998">
        <ele>255.80000305176</ele>
        <time>2023-12-16T11:58:58Z</time>
      </trkpt>
      <trkpt lat="43.44251" lon="1.81976">
        <ele>254.60000610352</ele>
        <time>2023-12-16T11:59:15Z</time>
      </trkpt>
      <trkpt lat="43.44262" lon="1.81948">
        <ele>253.39999389648</ele>
        <time>2023-12-16T11:59:37Z</time>
      </trkpt>
      <trkpt lat="43.44264" lon="1.81944">
        <ele>253.19999694824</ele>
        <time>2023-12-16T11:59:40Z</time>
      </trkpt>
      <trkpt lat="43.44277" lon="1.81916">
        <ele>252.39999389648</ele>
        <time>2023-12-16T12:00:02Z</time>
      </trkpt>
      <trkpt lat="43.44295" lon="1.8188">
        <ele>251.39999389648</ele>
        <time>2023-12-16T12:00:30Z</time>
      </trkpt>
      <trkpt lat="43.44303" lon="1.8186">
        <ele>250.80000305176</ele>
        <time>2023-12-16T12:00:45Z</time>
      </trkpt>
      <trkpt lat="43.44306" lon="1.81856">
        <ele>250.60000610352</ele>
        <time>2023-12-16T12:00:49Z</time>
      </trkpt>
      <trkpt lat="43.44319" lon="1.81827">
        <ele>250</ele>
        <time>2023-12-16T12:01:11Z</time>
      </trkpt>
      <trkpt lat="43.44335" lon="1.81795">
        <ele>248.80000305176</ele>
        <time>2023-12-16T12:01:37Z</time>
      </trkpt>
      <trkpt lat="43.44341" lon="1.81782">
        <ele>248.19999694824</ele>
        <time>2023-12-16T12:01:48Z</time>
      </trkpt>
      <trkpt lat="43.44344" lon="1.81775">
        <ele>248</ele>
        <time>2023-12-16T12:01:54Z</time>
      </trkpt>
      <trkpt lat="43.44355" lon="1.8175">
        <ele>247.19999694824</ele>
        <time>2023-12-16T12:02:13Z</time>
      </trkpt>
      <trkpt lat="43.44362" lon="1.81735">
        <ele>247</ele>
        <time>2023-12-16T12:02:26Z</time>
      </trkpt>
      <trkpt lat="43.44374" lon="1.8171">
        <ele>246.19999694824</ele>
        <time>2023-12-16T12:02:46Z</time>
      </trkpt>
      <trkpt lat="43.44384" lon="1.81689">
        <ele>245.39999389648</ele>
        <time>2023-12-16T12:03:03Z</time>
      </trkpt>
      <trkpt lat="43.44392" lon="1.81669">
        <ele>244.80000305176</ele>
        <time>2023-12-16T12:03:18Z</time>
      </trkpt>
      <trkpt lat="43.44399" lon="1.81653">
        <ele>244</ele>
        <time>2023-12-16T12:03:32Z</time>
      </trkpt>
      <trkpt lat="43.44401" lon="1.81646">
        <ele>243.60000610352</ele>
        <time>2023-12-16T12:03:37Z</time>
      </trkpt>
      <trkpt lat="43.44415" lon="1.81607">
        <ele>241.39999389648</ele>
        <time>2023-12-16T12:04:05Z</time>
      </trkpt>
      <trkpt lat="43.44416" lon="1.81604">
        <ele>241.39999389648</ele>
        <time>2023-12-16T12:04:07Z</time>
      </trkpt>
      <trkpt lat="43.44429" lon="1.81564">
        <ele>239.60000610352</ele>
        <time>2023-12-16T12:04:36Z</time>
      </trkpt>
      <trkpt lat="43.44433" lon="1.81554">
        <ele>239</ele>
        <time>2023-12-16T12:04:43Z</time>
      </trkpt>
      <trkpt lat="43.44443" lon="1.81527">
        <ele>237</ele>
        <time>2023-12-16T12:05:03Z</time>
      </trkpt>
      <trkpt lat="43.44449" lon="1.815">
        <ele>235.39999389648</ele>
        <time>2023-12-16T12:05:21Z</time>
      </trkpt>
      <trkpt lat="43.44459" lon="1.81473">
        <ele>233.80000305176</ele>
        <time>2023-12-16T12:05:41Z</time>
      </trkpt>
      <trkpt lat="43.44467" lon="1.81433">
        <ele>231.60000610352</ele>
        <time>2023-12-16T12:06:08Z</time>
      </trkpt>
      <trkpt lat="43.44467" lon="1.81405">
        <ele>229.60000610352</ele>
        <time>2023-12-16T12:06:27Z</time>
      </trkpt>
      <trkpt lat="43.44463" lon="1.8138">
        <ele>228</ele>
        <time>2023-12-16T12:06:45Z</time>
      </trkpt>
      <trkpt lat="43.44455" lon="1.81343">
        <ele>225.19999694824</ele>
        <time>2023-12-16T12:07:11Z</time>
      </trkpt>
      <trkpt lat="43.44454" lon="1.81313">
        <ele>223.19999694824</ele>
        <time>2023-12-16T12:07:30Z</time>
      </trkpt>
      <trkpt lat="43.44452" lon="1.81281">
        <ele>221.39999389648</ele>
        <time>2023-12-16T12:07:52Z</time>
      </trkpt>
      <trkpt lat="43.4445" lon="1.81245">
        <ele>218.80000305176</ele>
        <time>2023-12-16T12:08:15Z</time>
      </trkpt>
      <trkpt lat="43.44452" lon="1.8123">
        <ele>218.19999694824</ele>
        <time>2023-12-16T12:08:25Z</time>
      </trkpt>
      <trkpt lat="43.4446" lon="1.81205">
        <ele>218</ele>
        <time>2023-12-16T12:08:43Z</time>
      </trkpt>
      <trkpt lat="43.44462" lon="1.81197">
        <ele>218</ele>
        <time>2023-12-16T12:08:48Z</time>
      </trkpt>
      <trkpt lat="43.44464" lon="1.81192">
        <ele>218</ele>
        <time>2023-12-16T12:08:52Z</time>
      </trkpt>
      <trkpt lat="43.44476" lon="1.81166">
        <ele>217.80000305176</ele>
        <time>2023-12-16T12:09:13Z</time>
      </trkpt>
      <trkpt lat="43.44488" lon="1.8114">
        <ele>218.19999694824</ele>
        <time>2023-12-16T12:09:32Z</time>
      </trkpt>
      <trkpt lat="43.44498" lon="1.81121">
        <ele>218.19999694824</ele>
        <time>2023-12-16T12:09:49Z</time>
      </trkpt>
      <trkpt lat="43.445" lon="1.81119">
        <ele>218.19999694824</ele>
        <time>2023-12-16T12:09:51Z</time>
      </trkpt>
      <trkpt lat="43.44503" lon="1.81119">
        <ele>218.19999694824</ele>
        <time>2023-12-16T12:09:54Z</time>
      </trkpt>
      <trkpt lat="43.44514" lon="1.81144">
        <ele>218.39999389648</ele>
        <time>2023-12-16T12:10:13Z</time>
      </trkpt>
      <trkpt lat="43.44521" lon="1.81165">
        <ele>218</ele>
        <time>2023-12-16T12:10:31Z</time>
      </trkpt>
      <trkpt lat="43.44531" lon="1.81188">
        <ele>218.19999694824</ele>
        <time>2023-12-16T12:10:51Z</time>
      </trkpt>
      <trkpt lat="43.44541" lon="1.8121">
        <ele>217.80000305176</ele>
        <time>2023-12-16T12:11:08Z</time>
      </trkpt>
      <trkpt lat="43.44545" lon="1.81221">
        <ele>218</ele>
        <time>2023-12-16T12:11:20Z</time>
      </trkpt>
      <trkpt lat="43.44544" lon="1.81223">
        <ele>218.19999694824</ele>
        <time>2023-12-16T12:11:38Z</time>
      </trkpt>
      <trkpt lat="43.44544" lon="1.8122">
        <ele>218.19999694824</ele>
        <time>2023-12-16T12:11:56Z</time>
      </trkpt>
      <trkpt lat="43.44544" lon="1.81221">
        <ele>218.19999694824</ele>
        <time>2023-12-16T12:12:24Z</time>
      </trkpt>
      <trkpt lat="43.44545" lon="1.81221">
        <ele>218.39999389648</ele>
        <time>2023-12-16T12:13:04Z</time>
      </trkpt>
      <trkpt lat="43.44545" lon="1.81222">
        <ele>218.39999389648</ele>
        <time>2023-12-16T12:13:49Z</time>
      </trkpt>
      <trkpt lat="43.44544" lon="1.81222">
        <ele>218.19999694824</ele>
        <time>2023-12-16T12:14:41Z</time>
      </trkpt>
      <trkpt lat="43.44544" lon="1.81224">
        <ele>217.60000610352</ele>
        <time>2023-12-16T12:15:15Z</time>
      </trkpt>
      <trkpt lat="43.44544" lon="1.81223">
        <ele>217.80000305176</ele>
        <time>2023-12-16T12:15:31Z</time>
      </trkpt>
      <trkpt lat="43.44543" lon="1.81223">
        <ele>218.60000610352</ele>
        <time>2023-12-16T12:15:57Z</time>
      </trkpt>
      <trkpt lat="43.44542" lon="1.81221">
        <ele>218.60000610352</ele>
        <time>2023-12-16T12:16:51Z</time>
      </trkpt>
      <trkpt lat="43.44542" lon="1.81222">
        <ele>218.80000305176</ele>
        <time>2023-12-16T12:17:38Z</time>
      </trkpt>
      <trkpt lat="43.44545" lon="1.81225">
        <ele>219</ele>
        <time>2023-12-16T12:17:53Z</time>
      </trkpt>
      <trkpt lat="43.44546" lon="1.81227">
        <ele>219</ele>
        <time>2023-12-16T12:18:41Z</time>
      </trkpt>
      <trkpt lat="43.44548" lon="1.81234">
        <ele>219.19999694824</ele>
        <time>2023-12-16T12:19:02Z</time>
      </trkpt>
      <trkpt lat="43.44552" lon="1.81246">
        <ele>219.19999694824</ele>
        <time>2023-12-16T12:19:18Z</time>
      </trkpt>
      <trkpt lat="43.44558" lon="1.81264">
        <ele>219.39999389648</ele>
        <time>2023-12-16T12:19:35Z</time>
      </trkpt>
      <trkpt lat="43.44563" lon="1.81275">
        <ele>219.19999694824</ele>
        <time>2023-12-16T12:19:45Z</time>
      </trkpt>
      <trkpt lat="43.44574" lon="1.813">
        <ele>219.60000610352</ele>
        <time>2023-12-16T12:20:07Z</time>
      </trkpt>
      <trkpt lat="43.44579" lon="1.81331">
        <ele>219.80000305176</ele>
        <time>2023-12-16T12:20:30Z</time>
      </trkpt>
      <trkpt lat="43.44581" lon="1.81367">
        <ele>219.80000305176</ele>
        <time>2023-12-16T12:20:56Z</time>
      </trkpt>
      <trkpt lat="43.44585" lon="1.81379">
        <ele>220</ele>
        <time>2023-12-16T12:21:06Z</time>
      </trkpt>
      <trkpt lat="43.446" lon="1.81399">
        <ele>220.19999694824</ele>
        <time>2023-12-16T12:21:27Z</time>
      </trkpt>
      <trkpt lat="43.4461" lon="1.81422">
        <ele>220.19999694824</ele>
        <time>2023-12-16T12:21:46Z</time>
      </trkpt>
      <trkpt lat="43.44614" lon="1.81427">
        <ele>220.19999694824</ele>
        <time>2023-12-16T12:21:52Z</time>
      </trkpt>
      <trkpt lat="43.44629" lon="1.81426">
        <ele>220.39999389648</ele>
        <time>2023-12-16T12:22:09Z</time>
      </trkpt>
      <trkpt lat="43.44645" lon="1.81421">
        <ele>220.80000305176</ele>
        <time>2023-12-16T12:22:26Z</time>
      </trkpt>
      <trkpt lat="43.44659" lon="1.81418">
        <ele>222.19999694824</ele>
        <time>2023-12-16T12:22:40Z</time>
      </trkpt>
      <trkpt lat="43.44662" lon="1.81417">
        <ele>222.39999389648</ele>
        <time>2023-12-16T12:22:43Z</time>
      </trkpt>
      <trkpt lat="43.44677" lon="1.81415">
        <ele>223.39999389648</ele>
        <time>2023-12-16T12:23:00Z</time>
      </trkpt>
      <trkpt lat="43.44692" lon="1.81416">
        <ele>225.19999694824</ele>
        <time>2023-12-16T12:23:17Z</time>
      </trkpt>
      <trkpt lat="43.44701" lon="1.81449">
        <ele>226.39999389648</ele>
        <time>2023-12-16T12:23:45Z</time>
      </trkpt>
      <trkpt lat="43.44706" lon="1.81484">
        <ele>227.19999694824</ele>
        <time>2023-12-16T12:24:11Z</time>
      </trkpt>
      <trkpt lat="43.44706" lon="1.81494">
        <ele>227.39999389648</ele>
        <time>2023-12-16T12:24:18Z</time>
      </trkpt>
      <trkpt lat="43.44702" lon="1.81536">
        <ele>228.39999389648</ele>
        <time>2023-12-16T12:24:48Z</time>
      </trkpt>
      <trkpt lat="43.44697" lon="1.81557">
        <ele>228.19999694824</ele>
        <time>2023-12-16T12:25:03Z</time>
      </trkpt>
      <trkpt lat="43.44696" lon="1.81578">
        <ele>227</ele>
        <time>2023-12-16T12:25:18Z</time>
      </trkpt>
      <trkpt lat="43.44698" lon="1.81592">
        <ele>227</ele>
        <time>2023-12-16T12:25:29Z</time>
      </trkpt>
      <trkpt lat="43.44703" lon="1.81615">
        <ele>227</ele>
        <time>2023-12-16T12:25:46Z</time>
      </trkpt>
      <trkpt lat="43.44706" lon="1.81637">
        <ele>227</ele>
        <time>2023-12-16T12:26:02Z</time>
      </trkpt>
      <trkpt lat="43.44708" lon="1.81662">
        <ele>226.80000305176</ele>
        <time>2023-12-16T12:26:20Z</time>
      </trkpt>
      <trkpt lat="43.44708" lon="1.81681">
        <ele>226.80000305176</ele>
        <time>2023-12-16T12:26:37Z</time>
      </trkpt>
      <trkpt lat="43.44707" lon="1.81683">
        <ele>226.80000305176</ele>
        <time>2023-12-16T12:26:40Z</time>
      </trkpt>
      <trkpt lat="43.44709" lon="1.81696">
        <ele>227</ele>
        <time>2023-12-16T12:26:49Z</time>
      </trkpt>
      <trkpt lat="43.44711" lon="1.81715">
        <ele>227.39999389648</ele>
        <time>2023-12-16T12:27:02Z</time>
      </trkpt>
      <trkpt lat="43.44713" lon="1.81741">
        <ele>227.19999694824</ele>
        <time>2023-12-16T12:27:21Z</time>
      </trkpt>
      <trkpt lat="43.44715" lon="1.81763">
        <ele>227.19999694824</ele>
        <time>2023-12-16T12:27:36Z</time>
      </trkpt>
      <trkpt lat="43.44717" lon="1.81788">
        <ele>227.39999389648</ele>
        <time>2023-12-16T12:27:53Z</time>
      </trkpt>
      <trkpt lat="43.44718" lon="1.81806">
        <ele>227.39999389648</ele>
        <time>2023-12-16T12:28:06Z</time>
      </trkpt>
      <trkpt lat="43.44716" lon="1.8183">
        <ele>227.80000305176</ele>
        <time>2023-12-16T12:28:23Z</time>
      </trkpt>
      <trkpt lat="43.44713" lon="1.81856">
        <ele>228</ele>
        <time>2023-12-16T12:28:41Z</time>
      </trkpt>
      <trkpt lat="43.44713" lon="1.81886">
        <ele>228</ele>
        <time>2023-12-16T12:29:01Z</time>
      </trkpt>
      <trkpt lat="43.44712" lon="1.81912">
        <ele>228.39999389648</ele>
        <time>2023-12-16T12:29:19Z</time>
      </trkpt>
      <trkpt lat="43.44709" lon="1.81934">
        <ele>228.60000610352</ele>
        <time>2023-12-16T12:29:35Z</time>
      </trkpt>
      <trkpt lat="43.44708" lon="1.81957">
        <ele>228.80000305176</ele>
        <time>2023-12-16T12:29:51Z</time>
      </trkpt>
      <trkpt lat="43.44707" lon="1.81965">
        <ele>229</ele>
        <time>2023-12-16T12:29:57Z</time>
      </trkpt>
      <trkpt lat="43.44707" lon="1.8197">
        <ele>229.19999694824</ele>
        <time>2023-12-16T12:30:01Z</time>
      </trkpt>
      <trkpt lat="43.44706" lon="1.81995">
        <ele>230</ele>
        <time>2023-12-16T12:30:19Z</time>
      </trkpt>
      <trkpt lat="43.44705" lon="1.82018">
        <ele>230.60000610352</ele>
        <time>2023-12-16T12:30:36Z</time>
      </trkpt>
      <trkpt lat="43.447" lon="1.82042">
        <ele>231</ele>
        <time>2023-12-16T12:30:52Z</time>
      </trkpt>
      <trkpt lat="43.44697" lon="1.82063">
        <ele>230.80000305176</ele>
        <time>2023-12-16T12:31:07Z</time>
      </trkpt>
      <trkpt lat="43.44697" lon="1.82071">
        <ele>231</ele>
        <time>2023-12-16T12:31:12Z</time>
      </trkpt>
      <trkpt lat="43.44696" lon="1.82094">
        <ele>231.60000610352</ele>
        <time>2023-12-16T12:31:29Z</time>
      </trkpt>
      <trkpt lat="43.44695" lon="1.82116">
        <ele>232.39999389648</ele>
        <time>2023-12-16T12:31:45Z</time>
      </trkpt>
      <trkpt lat="43.44692" lon="1.82135">
        <ele>233.19999694824</ele>
        <time>2023-12-16T12:32:00Z</time>
      </trkpt>
      <trkpt lat="43.44693" lon="1.82153">
        <ele>233.60000610352</ele>
        <time>2023-12-16T12:32:12Z</time>
      </trkpt>
      <trkpt lat="43.44693" lon="1.82166">
        <ele>234</ele>
        <time>2023-12-16T12:32:21Z</time>
      </trkpt>
      <trkpt lat="43.44692" lon="1.82172">
        <ele>234.39999389648</ele>
        <time>2023-12-16T12:32:26Z</time>
      </trkpt>
      <trkpt lat="43.44692" lon="1.82197">
        <ele>235.39999389648</ele>
        <time>2023-12-16T12:32:44Z</time>
      </trkpt>
      <trkpt lat="43.44689" lon="1.82219">
        <ele>236</ele>
        <time>2023-12-16T12:33:01Z</time>
      </trkpt>
      <trkpt lat="43.44689" lon="1.82224">
        <ele>236</ele>
        <time>2023-12-16T12:33:05Z</time>
      </trkpt>
      <trkpt lat="43.44688" lon="1.82229">
        <ele>236</ele>
        <time>2023-12-16T12:33:09Z</time>
      </trkpt>
      <trkpt lat="43.44688" lon="1.82257">
        <ele>234.60000610352</ele>
        <time>2023-12-16T12:33:29Z</time>
      </trkpt>
      <trkpt lat="43.44695" lon="1.82279">
        <ele>233.19999694824</ele>
        <time>2023-12-16T12:33:47Z</time>
      </trkpt>
      <trkpt lat="43.44702" lon="1.82296">
        <ele>232</ele>
        <time>2023-12-16T12:34:03Z</time>
      </trkpt>
      <trkpt lat="43.44709" lon="1.82306">
        <ele>231.39999389648</ele>
        <time>2023-12-16T12:34:12Z</time>
      </trkpt>
      <trkpt lat="43.44719" lon="1.82323">
        <ele>230.19999694824</ele>
        <time>2023-12-16T12:34:30Z</time>
      </trkpt>
      <trkpt lat="43.44722" lon="1.8233">
        <ele>229.60000610352</ele>
        <time>2023-12-16T12:34:46Z</time>
      </trkpt>
      <trkpt lat="43.44728" lon="1.82339">
        <ele>229.19999694824</ele>
        <time>2023-12-16T12:35:01Z</time>
      </trkpt>
      <trkpt lat="43.4473" lon="1.82349">
        <ele>228.80000305176</ele>
        <time>2023-12-16T12:35:15Z</time>
      </trkpt>
      <trkpt lat="43.4473" lon="1.82352">
        <ele>227.80000305176</ele>
        <time>2023-12-16T12:35:32Z</time>
      </trkpt>
      <trkpt lat="43.4473" lon="1.82353">
        <ele>226.80000305176</ele>
        <time>2023-12-16T12:36:15Z</time>
      </trkpt>
      <trkpt lat="43.44729" lon="1.82354">
        <ele>227</ele>
        <time>2023-12-16T12:38:38Z</time>
      </trkpt>
      <trkpt lat="43.44728" lon="1.82356">
        <ele>227.39999389648</ele>
        <time>2023-12-16T12:41:44Z</time>
      </trkpt>
      <trkpt lat="43.44732" lon="1.82352">
        <ele>228.80000305176</ele>
        <time>2023-12-16T12:42:07Z</time>
      </trkpt>
      <trkpt lat="43.44734" lon="1.8235">
        <ele>229.19999694824</ele>
        <time>2023-12-16T12:42:30Z</time>
      </trkpt>
      <trkpt lat="43.44733" lon="1.8235">
        <ele>229.19999694824</ele>
        <time>2023-12-16T12:42:46Z</time>
      </trkpt>
      <trkpt lat="43.44735" lon="1.82353">
        <ele>229.19999694824</ele>
        <time>2023-12-16T12:43:14Z</time>
      </trkpt>
      <trkpt lat="43.44736" lon="1.82354">
        <ele>229.19999694824</ele>
        <time>2023-12-16T12:43:31Z</time>
      </trkpt>
      <trkpt lat="43.44746" lon="1.82366">
        <ele>229</ele>
        <time>2023-12-16T12:43:53Z</time>
      </trkpt>
      <trkpt lat="43.44759" lon="1.82377">
        <ele>229</ele>
        <time>2023-12-16T12:44:10Z</time>
      </trkpt>
      <trkpt lat="43.4477" lon="1.82388">
        <ele>229.19999694824</ele>
        <time>2023-12-16T12:44:26Z</time>
      </trkpt>
      <trkpt lat="43.44779" lon="1.82396">
        <ele>229.39999389648</ele>
        <time>2023-12-16T12:44:39Z</time>
      </trkpt>
      <trkpt lat="43.44791" lon="1.82407">
        <ele>229.80000305176</ele>
        <time>2023-12-16T12:44:55Z</time>
      </trkpt>
      <trkpt lat="43.44803" lon="1.82418">
        <ele>229.80000305176</ele>
        <time>2023-12-16T12:45:11Z</time>
      </trkpt>
      <trkpt lat="43.44805" lon="1.8242">
        <ele>230</ele>
        <time>2023-12-16T12:45:14Z</time>
      </trkpt>
      <trkpt lat="43.44817" lon="1.82432">
        <ele>230.39999389648</ele>
        <time>2023-12-16T12:45:32Z</time>
      </trkpt>
      <trkpt lat="43.44833" lon="1.82455">
        <ele>231.19999694824</ele>
        <time>2023-12-16T12:45:57Z</time>
      </trkpt>
      <trkpt lat="43.44833" lon="1.82456">
        <ele>231.39999389648</ele>
        <time>2023-12-16T12:45:58Z</time>
      </trkpt>
      <trkpt lat="43.44842" lon="1.82474">
        <ele>232.60000610352</ele>
        <time>2023-12-16T12:46:15Z</time>
      </trkpt>
      <trkpt lat="43.44849" lon="1.82489">
        <ele>233.19999694824</ele>
        <time>2023-12-16T12:46:31Z</time>
      </trkpt>
      <trkpt lat="43.44857" lon="1.82508">
        <ele>233.60000610352</ele>
        <time>2023-12-16T12:46:49Z</time>
      </trkpt>
      <trkpt lat="43.44866" lon="1.8253">
        <ele>234.60000610352</ele>
        <time>2023-12-16T12:47:08Z</time>
      </trkpt>
      <trkpt lat="43.44874" lon="1.82558">
        <ele>235.80000305176</ele>
        <time>2023-12-16T12:47:28Z</time>
      </trkpt>
      <trkpt lat="43.44876" lon="1.82583">
        <ele>235.60000610352</ele>
        <time>2023-12-16T12:47:47Z</time>
      </trkpt>
      <trkpt lat="43.44879" lon="1.82607">
        <ele>235.80000305176</ele>
        <time>2023-12-16T12:48:03Z</time>
      </trkpt>
      <trkpt lat="43.44881" lon="1.82637">
        <ele>236.19999694824</ele>
        <time>2023-12-16T12:48:25Z</time>
      </trkpt>
      <trkpt lat="43.44883" lon="1.82651">
        <ele>236.39999389648</ele>
        <time>2023-12-16T12:48:36Z</time>
      </trkpt>
      <trkpt lat="43.44886" lon="1.82666">
        <ele>236.60000610352</ele>
        <time>2023-12-16T12:48:48Z</time>
      </trkpt>
      <trkpt lat="43.44893" lon="1.82683">
        <ele>237.19999694824</ele>
        <time>2023-12-16T12:49:02Z</time>
      </trkpt>
      <trkpt lat="43.44897" lon="1.82701">
        <ele>238.19999694824</ele>
        <time>2023-12-16T12:49:17Z</time>
      </trkpt>
      <trkpt lat="43.44899" lon="1.82722">
        <ele>238.39999389648</ele>
        <time>2023-12-16T12:49:33Z</time>
      </trkpt>
      <trkpt lat="43.44899" lon="1.82744">
        <ele>237.39999389648</ele>
        <time>2023-12-16T12:49:49Z</time>
      </trkpt>
      <trkpt lat="43.44899" lon="1.82753">
        <ele>236.80000305176</ele>
        <time>2023-12-16T12:49:59Z</time>
      </trkpt>
      <trkpt lat="43.44898" lon="1.82759">
        <ele>236.60000610352</ele>
        <time>2023-12-16T12:50:03Z</time>
      </trkpt>
      <trkpt lat="43.44899" lon="1.82767">
        <ele>236.39999389648</ele>
        <time>2023-12-16T12:50:09Z</time>
      </trkpt>
      <trkpt lat="43.44892" lon="1.82791">
        <ele>234.19999694824</ele>
        <time>2023-12-16T12:50:26Z</time>
      </trkpt>
      <trkpt lat="43.44887" lon="1.82816">
        <ele>233.19999694824</ele>
        <time>2023-12-16T12:50:44Z</time>
      </trkpt>
      <trkpt lat="43.44883" lon="1.82833">
        <ele>232.80000305176</ele>
        <time>2023-12-16T12:51:00Z</time>
      </trkpt>
      <trkpt lat="43.44886" lon="1.82837">
        <ele>232.80000305176</ele>
        <time>2023-12-16T12:51:16Z</time>
      </trkpt>
      <trkpt lat="43.44887" lon="1.8284">
        <ele>233.39999389648</ele>
        <time>2023-12-16T12:51:42Z</time>
      </trkpt>
      <trkpt lat="43.44881" lon="1.82841">
        <ele>233.19999694824</ele>
        <time>2023-12-16T12:52:05Z</time>
      </trkpt>
      <trkpt lat="43.44881" lon="1.82837">
        <ele>233</ele>
        <time>2023-12-16T12:52:25Z</time>
      </trkpt>
      <trkpt lat="43.44884" lon="1.82839">
        <ele>233</ele>
        <time>2023-12-16T12:52:59Z</time>
      </trkpt>
      <trkpt lat="43.44884" lon="1.82838">
        <ele>233.19999694824</ele>
        <time>2023-12-16T12:53:01Z</time>
      </trkpt>
      <trkpt lat="43.44885" lon="1.82836">
        <ele>233.19999694824</ele>
        <time>2023-12-16T12:53:03Z</time>
      </trkpt>
      <trkpt lat="43.44887" lon="1.82828">
        <ele>232.80000305176</ele>
        <time>2023-12-16T12:53:17Z</time>
      </trkpt>
      <trkpt lat="43.44888" lon="1.82836">
        <ele>232.80000305176</ele>
        <time>2023-12-16T12:53:52Z</time>
      </trkpt>
      <trkpt lat="43.44885" lon="1.8284">
        <ele>233.19999694824</ele>
        <time>2023-12-16T12:54:19Z</time>
      </trkpt>
      <trkpt lat="43.44891" lon="1.82844">
        <ele>233.19999694824</ele>
        <time>2023-12-16T12:54:31Z</time>
      </trkpt>
      <trkpt lat="43.44892" lon="1.82844">
        <ele>233.19999694824</ele>
        <time>2023-12-16T12:54:33Z</time>
      </trkpt>
      <trkpt lat="43.44911" lon="1.82845">
        <ele>233.60000610352</ele>
        <time>2023-12-16T12:54:54Z</time>
      </trkpt>
      <trkpt lat="43.44917" lon="1.82845">
        <ele>234.19999694824</ele>
        <time>2023-12-16T12:54:59Z</time>
      </trkpt>
      <trkpt lat="43.44921" lon="1.82845">
        <ele>234.39999389648</ele>
        <time>2023-12-16T12:55:03Z</time>
      </trkpt>
      <trkpt lat="43.44925" lon="1.82845">
        <ele>234.60000610352</ele>
        <time>2023-12-16T12:55:09Z</time>
      </trkpt>
      <trkpt lat="43.44928" lon="1.82845">
        <ele>235</ele>
        <time>2023-12-16T12:55:13Z</time>
      </trkpt>
      <trkpt lat="43.44932" lon="1.82844">
        <ele>235.39999389648</ele>
        <time>2023-12-16T12:55:18Z</time>
      </trkpt>
      <trkpt lat="43.44948" lon="1.82841">
        <ele>236.39999389648</ele>
        <time>2023-12-16T12:55:37Z</time>
      </trkpt>
      <trkpt lat="43.44965" lon="1.8284">
        <ele>237.80000305176</ele>
        <time>2023-12-16T12:55:55Z</time>
      </trkpt>
      <trkpt lat="43.44983" lon="1.82839">
        <ele>239.39999389648</ele>
        <time>2023-12-16T12:56:13Z</time>
      </trkpt>
      <trkpt lat="43.45" lon="1.82835">
        <ele>240.60000610352</ele>
        <time>2023-12-16T12:56:30Z</time>
      </trkpt>
      <trkpt lat="43.45005" lon="1.82833">
        <ele>241.19999694824</ele>
        <time>2023-12-16T12:56:35Z</time>
      </trkpt>
      <trkpt lat="43.45024" lon="1.82835">
        <ele>242.60000610352</ele>
        <time>2023-12-16T12:56:54Z</time>
      </trkpt>
      <trkpt lat="43.45035" lon="1.82835">
        <ele>243.39999389648</ele>
        <time>2023-12-16T12:57:06Z</time>
      </trkpt>
      <trkpt lat="43.4504" lon="1.82836">
        <ele>243.80000305176</ele>
        <time>2023-12-16T12:57:12Z</time>
      </trkpt>
      <trkpt lat="43.45059" lon="1.82836">
        <ele>245.19999694824</ele>
        <time>2023-12-16T12:57:29Z</time>
      </trkpt>
      <trkpt lat="43.45079" lon="1.82832">
        <ele>247.19999694824</ele>
        <time>2023-12-16T12:57:49Z</time>
      </trkpt>
      <trkpt lat="43.45098" lon="1.82825">
        <ele>249</ele>
        <time>2023-12-16T12:58:08Z</time>
      </trkpt>
      <trkpt lat="43.45114" lon="1.82816">
        <ele>250.60000610352</ele>
        <time>2023-12-16T12:58:27Z</time>
      </trkpt>
      <trkpt lat="43.45133" lon="1.82816">
        <ele>252.19999694824</ele>
        <time>2023-12-16T12:58:46Z</time>
      </trkpt>
      <trkpt lat="43.45145" lon="1.82827">
        <ele>254.39999389648</ele>
        <time>2023-12-16T12:59:06Z</time>
      </trkpt>
      <trkpt lat="43.45144" lon="1.82829">
        <ele>255.19999694824</ele>
        <time>2023-12-16T12:59:49Z</time>
      </trkpt>
      <trkpt lat="43.45145" lon="1.82822">
        <ele>255.39999389648</ele>
        <time>2023-12-16T13:00:19Z</time>
      </trkpt>
      <trkpt lat="43.45147" lon="1.82817">
        <ele>255.19999694824</ele>
        <time>2023-12-16T13:00:32Z</time>
      </trkpt>
      <trkpt lat="43.45149" lon="1.82812">
        <ele>255.19999694824</ele>
        <time>2023-12-16T13:00:36Z</time>
      </trkpt>
      <trkpt lat="43.45161" lon="1.8279">
        <ele>254.39999389648</ele>
        <time>2023-12-16T13:00:54Z</time>
      </trkpt>
      <trkpt lat="43.45165" lon="1.82786">
        <ele>254.19999694824</ele>
        <time>2023-12-16T13:01:00Z</time>
      </trkpt>
      <trkpt lat="43.45177" lon="1.82764">
        <ele>254</ele>
        <time>2023-12-16T13:01:15Z</time>
      </trkpt>
      <trkpt lat="43.45187" lon="1.82752">
        <ele>254</ele>
        <time>2023-12-16T13:01:24Z</time>
      </trkpt>
      <trkpt lat="43.45188" lon="1.82751">
        <ele>254</ele>
        <time>2023-12-16T13:01:25Z</time>
      </trkpt>
      <trkpt lat="43.45189" lon="1.8275">
        <ele>254</ele>
        <time>2023-12-16T13:01:26Z</time>
      </trkpt>
      <trkpt lat="43.4519" lon="1.82749">
        <ele>254</ele>
        <time>2023-12-16T13:01:27Z</time>
      </trkpt>
      <trkpt lat="43.45191" lon="1.82748">
        <ele>254</ele>
        <time>2023-12-16T13:01:28Z</time>
      </trkpt>
      <trkpt lat="43.45193" lon="1.82745">
        <ele>254</ele>
        <time>2023-12-16T13:01:29Z</time>
      </trkpt>
      <trkpt lat="43.45194" lon="1.82744">
        <ele>254</ele>
        <time>2023-12-16T13:01:30Z</time>
      </trkpt>
      <trkpt lat="43.45212" lon="1.82721">
        <ele>255.19999694824</ele>
        <time>2023-12-16T13:01:46Z</time>
      </trkpt>
      <trkpt lat="43.4524" lon="1.82692">
        <ele>254.39999389648</ele>
        <time>2023-12-16T13:02:09Z</time>
      </trkpt>
      <trkpt lat="43.45255" lon="1.8267">
        <ele>253.60000610352</ele>
        <time>2023-12-16T13:02:23Z</time>
      </trkpt>
      <trkpt lat="43.4527" lon="1.82644">
        <ele>250.39999389648</ele>
        <time>2023-12-16T13:02:40Z</time>
      </trkpt>
      <trkpt lat="43.45279" lon="1.82617">
        <ele>247</ele>
        <time>2023-12-16T13:02:55Z</time>
      </trkpt>
      <trkpt lat="43.45287" lon="1.82592">
        <ele>245.80000305176</ele>
        <time>2023-12-16T13:03:12Z</time>
      </trkpt>
      <trkpt lat="43.45289" lon="1.82585">
        <ele>245.60000610352</ele>
        <time>2023-12-16T13:03:18Z</time>
      </trkpt>
      <trkpt lat="43.4529" lon="1.82576">
        <ele>245.39999389648</ele>
        <time>2023-12-16T13:03:25Z</time>
      </trkpt>
      <trkpt lat="43.4529" lon="1.8256">
        <ele>245.39999389648</ele>
        <time>2023-12-16T13:03:36Z</time>
      </trkpt>
      <trkpt lat="43.45294" lon="1.82543">
        <ele>245.60000610352</ele>
        <time>2023-12-16T13:03:51Z</time>
      </trkpt>
      <trkpt lat="43.45306" lon="1.82524">
        <ele>249</ele>
        <time>2023-12-16T13:04:09Z</time>
      </trkpt>
      <trkpt lat="43.45316" lon="1.82512">
        <ele>251.19999694824</ele>
        <time>2023-12-16T13:04:25Z</time>
      </trkpt>
      <trkpt lat="43.45321" lon="1.82493">
        <ele>253.39999389648</ele>
        <time>2023-12-16T13:04:42Z</time>
      </trkpt>
      <trkpt lat="43.45326" lon="1.8247">
        <ele>255.39999389648</ele>
        <time>2023-12-16T13:05:02Z</time>
      </trkpt>
      <trkpt lat="43.45331" lon="1.82446">
        <ele>257</ele>
        <time>2023-12-16T13:05:20Z</time>
      </trkpt>
      <trkpt lat="43.45337" lon="1.82422">
        <ele>259.20001220703</ele>
        <time>2023-12-16T13:05:41Z</time>
      </trkpt>
      <trkpt lat="43.45342" lon="1.82404">
        <ele>261</ele>
        <time>2023-12-16T13:05:56Z</time>
      </trkpt>
      <trkpt lat="43.45343" lon="1.82402">
        <ele>261.20001220703</ele>
        <time>2023-12-16T13:05:58Z</time>
      </trkpt>
      <trkpt lat="43.45351" lon="1.82378">
        <ele>263.39999389648</ele>
        <time>2023-12-16T13:06:19Z</time>
      </trkpt>
      <trkpt lat="43.45357" lon="1.8236">
        <ele>264.79998779297</ele>
        <time>2023-12-16T13:06:34Z</time>
      </trkpt>
      <trkpt lat="43.45368" lon="1.82329">
        <ele>267.20001220703</ele>
        <time>2023-12-16T13:06:58Z</time>
      </trkpt>
      <trkpt lat="43.45371" lon="1.82322">
        <ele>267.79998779297</ele>
        <time>2023-12-16T13:07:04Z</time>
      </trkpt>
      <trkpt lat="43.45371" lon="1.8232">
        <ele>267.79998779297</ele>
        <time>2023-12-16T13:07:05Z</time>
      </trkpt>
      <trkpt lat="43.45373" lon="1.82314">
        <ele>268.20001220703</ele>
        <time>2023-12-16T13:07:10Z</time>
      </trkpt>
      <trkpt lat="43.45373" lon="1.82313">
        <ele>268.20001220703</ele>
        <time>2023-12-16T13:07:11Z</time>
      </trkpt>
      <trkpt lat="43.45382" lon="1.82287">
        <ele>270.20001220703</ele>
        <time>2023-12-16T13:07:32Z</time>
      </trkpt>
      <trkpt lat="43.45391" lon="1.82266">
        <ele>270.79998779297</ele>
        <time>2023-12-16T13:07:49Z</time>
      </trkpt>
      <trkpt lat="43.45406" lon="1.82243">
        <ele>271.39999389648</ele>
        <time>2023-12-16T13:08:11Z</time>
      </trkpt>
      <trkpt lat="43.45419" lon="1.82229">
        <ele>271.60000610352</ele>
        <time>2023-12-16T13:08:31Z</time>
      </trkpt>
      <trkpt lat="43.45428" lon="1.82218">
        <ele>271.60000610352</ele>
        <time>2023-12-16T13:08:48Z</time>
      </trkpt>
      <trkpt lat="43.4544" lon="1.822">
        <ele>271.60000610352</ele>
        <time>2023-12-16T13:09:07Z</time>
      </trkpt>
      <trkpt lat="43.45452" lon="1.82185">
        <ele>271.39999389648</ele>
        <time>2023-12-16T13:09:28Z</time>
      </trkpt>
      <trkpt lat="43.45455" lon="1.82189">
        <ele>271</ele>
        <time>2023-12-16T13:09:44Z</time>
      </trkpt>
      <trkpt lat="43.45453" lon="1.82184">
        <ele>271</ele>
        <time>2023-12-16T13:09:56Z</time>
      </trkpt>
      <trkpt lat="43.45454" lon="1.82189">
        <ele>270.79998779297</ele>
        <time>2023-12-16T13:10:27Z</time>
      </trkpt>
      <trkpt lat="43.45453" lon="1.82192">
        <ele>271</ele>
        <time>2023-12-16T13:10:56Z</time>
      </trkpt>
      <trkpt lat="43.45453" lon="1.82192">
        <ele>271</ele>
        <time>2023-12-16T13:11:38Z</time>
      </trkpt>
      <trkpt lat="43.45448" lon="1.82194">
        <ele>271.20001220703</ele>
        <time>2023-12-16T13:12:02Z</time>
      </trkpt>
      <trkpt lat="43.45445" lon="1.82198">
        <ele>271.39999389648</ele>
        <time>2023-12-16T13:12:17Z</time>
      </trkpt>
      <trkpt lat="43.45443" lon="1.82198">
        <ele>271.20001220703</ele>
        <time>2023-12-16T13:12:48Z</time>
      </trkpt>
      <trkpt lat="43.45442" lon="1.82201">
        <ele>271.39999389648</ele>
        <time>2023-12-16T13:13:40Z</time>
      </trkpt>
      <trkpt lat="43.45444" lon="1.82199">
        <ele>271.39999389648</ele>
        <time>2023-12-16T13:14:15Z</time>
      </trkpt>
      <trkpt lat="43.45444" lon="1.82201">
        <ele>271.39999389648</ele>
        <time>2023-12-16T13:15:01Z</time>
      </trkpt>
      <trkpt lat="43.45445" lon="1.82198">
        <ele>271.60000610352</ele>
        <time>2023-12-16T13:15:28Z</time>
      </trkpt>
      <trkpt lat="43.45446" lon="1.82196">
        <ele>271.60000610352</ele>
        <time>2023-12-16T13:15:52Z</time>
      </trkpt>
      <trkpt lat="43.45449" lon="1.82192">
        <ele>271.60000610352</ele>
        <time>2023-12-16T13:16:03Z</time>
      </trkpt>
      <trkpt lat="43.4545" lon="1.82192">
        <ele>271.60000610352</ele>
        <time>2023-12-16T13:16:04Z</time>
      </trkpt>
      <trkpt lat="43.45459" lon="1.82184">
        <ele>271</ele>
        <time>2023-12-16T13:16:20Z</time>
      </trkpt>
      <trkpt lat="43.45459" lon="1.82186">
        <ele>270.79998779297</ele>
        <time>2023-12-16T13:16:36Z</time>
      </trkpt>
      <trkpt lat="43.45463" lon="1.82197">
        <ele>270.39999389648</ele>
        <time>2023-12-16T13:16:51Z</time>
      </trkpt>
      <trkpt lat="43.45467" lon="1.82223">
        <ele>268</ele>
        <time>2023-12-16T13:17:15Z</time>
      </trkpt>
      <trkpt lat="43.45469" lon="1.82243">
        <ele>266.60000610352</ele>
        <time>2023-12-16T13:17:31Z</time>
      </trkpt>
      <trkpt lat="43.45473" lon="1.8227">
        <ele>264.79998779297</ele>
        <time>2023-12-16T13:17:52Z</time>
      </trkpt>
      <trkpt lat="43.45476" lon="1.82296">
        <ele>262.79998779297</ele>
        <time>2023-12-16T13:18:12Z</time>
      </trkpt>
      <trkpt lat="43.45477" lon="1.82317">
        <ele>262</ele>
        <time>2023-12-16T13:18:29Z</time>
      </trkpt>
      <trkpt lat="43.45481" lon="1.82342">
        <ele>259.79998779297</ele>
        <time>2023-12-16T13:18:49Z</time>
      </trkpt>
      <trkpt lat="43.45481" lon="1.82345">
        <ele>259.79998779297</ele>
        <time>2023-12-16T13:18:51Z</time>
      </trkpt>
      <trkpt lat="43.45481" lon="1.82348">
        <ele>259.60000610352</ele>
        <time>2023-12-16T13:18:53Z</time>
      </trkpt>
      <trkpt lat="43.45481" lon="1.82349">
        <ele>259.39999389648</ele>
        <time>2023-12-16T13:18:54Z</time>
      </trkpt>
      <trkpt lat="43.45485" lon="1.8236">
        <ele>258.39999389648</ele>
        <time>2023-12-16T13:19:02Z</time>
      </trkpt>
      <trkpt lat="43.45485" lon="1.82361">
        <ele>258.20001220703</ele>
        <time>2023-12-16T13:19:03Z</time>
      </trkpt>
      <trkpt lat="43.45485" lon="1.82363">
        <ele>258</ele>
        <time>2023-12-16T13:19:04Z</time>
      </trkpt>
      <trkpt lat="43.45486" lon="1.82364">
        <ele>258</ele>
        <time>2023-12-16T13:19:05Z</time>
      </trkpt>
      <trkpt lat="43.45486" lon="1.82366">
        <ele>257.79998779297</ele>
        <time>2023-12-16T13:19:06Z</time>
      </trkpt>
      <trkpt lat="43.4549" lon="1.8239">
        <ele>255.19999694824</ele>
        <time>2023-12-16T13:19:24Z</time>
      </trkpt>
      <trkpt lat="43.45494" lon="1.82405">
        <ele>254</ele>
        <time>2023-12-16T13:19:36Z</time>
      </trkpt>
      <trkpt lat="43.45502" lon="1.82435">
        <ele>252.39999389648</ele>
        <time>2023-12-16T13:19:58Z</time>
      </trkpt>
      <trkpt lat="43.45504" lon="1.82442">
        <ele>252.19999694824</ele>
        <time>2023-12-16T13:20:03Z</time>
      </trkpt>
      <trkpt lat="43.45504" lon="1.82476">
        <ele>252</ele>
        <time>2023-12-16T13:20:26Z</time>
      </trkpt>
      <trkpt lat="43.45506" lon="1.82503">
        <ele>252.80000305176</ele>
        <time>2023-12-16T13:20:46Z</time>
      </trkpt>
      <trkpt lat="43.4551" lon="1.82533">
        <ele>253.80000305176</ele>
        <time>2023-12-16T13:21:08Z</time>
      </trkpt>
      <trkpt lat="43.45514" lon="1.82562">
        <ele>255.19999694824</ele>
        <time>2023-12-16T13:21:29Z</time>
      </trkpt>
      <trkpt lat="43.45518" lon="1.82586">
        <ele>256.20001220703</ele>
        <time>2023-12-16T13:21:46Z</time>
      </trkpt>
      <trkpt lat="43.45523" lon="1.82602">
        <ele>257.20001220703</ele>
        <time>2023-12-16T13:21:59Z</time>
      </trkpt>
      <trkpt lat="43.45523" lon="1.82604">
        <ele>257.20001220703</ele>
        <time>2023-12-16T13:22:00Z</time>
      </trkpt>
      <trkpt lat="43.45523" lon="1.82605">
        <ele>257.20001220703</ele>
        <time>2023-12-16T13:22:01Z</time>
      </trkpt>
      <trkpt lat="43.45523" lon="1.82607">
        <ele>257.20001220703</ele>
        <time>2023-12-16T13:22:02Z</time>
      </trkpt>
      <trkpt lat="43.45524" lon="1.82608">
        <ele>257.39999389648</ele>
        <time>2023-12-16T13:22:03Z</time>
      </trkpt>
      <trkpt lat="43.45533" lon="1.82629">
        <ele>258.60000610352</ele>
        <time>2023-12-16T13:22:20Z</time>
      </trkpt>
      <trkpt lat="43.4554" lon="1.82643">
        <ele>259.79998779297</ele>
        <time>2023-12-16T13:22:35Z</time>
      </trkpt>
      <trkpt lat="43.45547" lon="1.8266">
        <ele>260.60000610352</ele>
        <time>2023-12-16T13:22:53Z</time>
      </trkpt>
      <trkpt lat="43.45557" lon="1.82682">
        <ele>263</ele>
        <time>2023-12-16T13:23:15Z</time>
      </trkpt>
      <trkpt lat="43.45567" lon="1.82705">
        <ele>266</ele>
        <time>2023-12-16T13:23:38Z</time>
      </trkpt>
      <trkpt lat="43.45577" lon="1.82727">
        <ele>268.39999389648</ele>
        <time>2023-12-16T13:23:59Z</time>
      </trkpt>
      <trkpt lat="43.45587" lon="1.8275">
        <ele>270.39999389648</ele>
        <time>2023-12-16T13:24:20Z</time>
      </trkpt>
      <trkpt lat="43.45598" lon="1.82771">
        <ele>272.60000610352</ele>
        <time>2023-12-16T13:24:41Z</time>
      </trkpt>
      <trkpt lat="43.45611" lon="1.82797">
        <ele>275</ele>
        <time>2023-12-16T13:25:06Z</time>
      </trkpt>
      <trkpt lat="43.45619" lon="1.82816">
        <ele>277.39999389648</ele>
        <time>2023-12-16T13:25:25Z</time>
      </trkpt>
      <trkpt lat="43.45625" lon="1.82837">
        <ele>279.20001220703</ele>
        <time>2023-12-16T13:25:45Z</time>
      </trkpt>
      <trkpt lat="43.45625" lon="1.82847">
        <ele>279.60000610352</ele>
        <time>2023-12-16T13:25:58Z</time>
      </trkpt>
      <trkpt lat="43.45623" lon="1.82849">
        <ele>279.79998779297</ele>
        <time>2023-12-16T13:26:00Z</time>
      </trkpt>
      <trkpt lat="43.4562" lon="1.82853">
        <ele>279.20001220703</ele>
        <time>2023-12-16T13:26:19Z</time>
      </trkpt>
      <trkpt lat="43.45619" lon="1.82857">
        <ele>279.60000610352</ele>
        <time>2023-12-16T13:26:45Z</time>
      </trkpt>
      <trkpt lat="43.4562" lon="1.82856">
        <ele>279.60000610352</ele>
        <time>2023-12-16T13:27:10Z</time>
      </trkpt>
      <trkpt lat="43.45619" lon="1.82856">
        <ele>279.79998779297</ele>
        <time>2023-12-16T13:27:30Z</time>
      </trkpt>
      <trkpt lat="43.45619" lon="1.82856">
        <ele>279.60000610352</ele>
        <time>2023-12-16T13:28:13Z</time>
      </trkpt>
      <trkpt lat="43.45619" lon="1.82856">
        <ele>279.79998779297</ele>
        <time>2023-12-16T13:29:01Z</time>
      </trkpt>
      <trkpt lat="43.45619" lon="1.82856">
        <ele>279.60000610352</ele>
        <time>2023-12-16T13:29:25Z</time>
      </trkpt>
      <trkpt lat="43.45622" lon="1.82853">
        <ele>279.79998779297</ele>
        <time>2023-12-16T13:29:38Z</time>
      </trkpt>
      <trkpt lat="43.45624" lon="1.82845">
        <ele>279.79998779297</ele>
        <time>2023-12-16T13:29:45Z</time>
      </trkpt>
      <trkpt lat="43.45625" lon="1.82844">
        <ele>279.79998779297</ele>
        <time>2023-12-16T13:29:46Z</time>
      </trkpt>
      <trkpt lat="43.45625" lon="1.82834">
        <ele>280</ele>
        <time>2023-12-16T13:29:54Z</time>
      </trkpt>
      <trkpt lat="43.45624" lon="1.82832">
        <ele>280</ele>
        <time>2023-12-16T13:29:55Z</time>
      </trkpt>
      <trkpt lat="43.45624" lon="1.82831">
        <ele>280</ele>
        <time>2023-12-16T13:29:56Z</time>
      </trkpt>
      <trkpt lat="43.45613" lon="1.82815">
        <ele>279.39999389648</ele>
        <time>2023-12-16T13:30:15Z</time>
      </trkpt>
      <trkpt lat="43.45615" lon="1.82815">
        <ele>279</ele>
        <time>2023-12-16T13:30:41Z</time>
      </trkpt>
      <trkpt lat="43.45616" lon="1.82816">
        <ele>279</ele>
        <time>2023-12-16T13:30:42Z</time>
      </trkpt>
      <trkpt lat="43.45617" lon="1.82818">
        <ele>279</ele>
        <time>2023-12-16T13:30:44Z</time>
      </trkpt>
      <trkpt lat="43.45618" lon="1.8282">
        <ele>279</ele>
        <time>2023-12-16T13:30:45Z</time>
      </trkpt>
      <trkpt lat="43.45625" lon="1.82839">
        <ele>279.79998779297</ele>
        <time>2023-12-16T13:31:06Z</time>
      </trkpt>
      <trkpt lat="43.45625" lon="1.82843">
        <ele>280.20001220703</ele>
        <time>2023-12-16T13:31:31Z</time>
      </trkpt>
      <trkpt lat="43.45624" lon="1.82846">
        <ele>280</ele>
        <time>2023-12-16T13:31:57Z</time>
      </trkpt>
      <trkpt lat="43.45625" lon="1.82848">
        <ele>280</ele>
        <time>2023-12-16T13:32:24Z</time>
      </trkpt>
      <trkpt lat="43.45628" lon="1.82845">
        <ele>280</ele>
        <time>2023-12-16T13:32:42Z</time>
      </trkpt>
      <trkpt lat="43.4563" lon="1.82846">
        <ele>280.20001220703</ele>
        <time>2023-12-16T13:33:05Z</time>
      </trkpt>
      <trkpt lat="43.45628" lon="1.82844">
        <ele>280.20001220703</ele>
        <time>2023-12-16T13:33:27Z</time>
      </trkpt>
      <trkpt lat="43.45627" lon="1.82838">
        <ele>280.20001220703</ele>
        <time>2023-12-16T13:33:47Z</time>
      </trkpt>
      <trkpt lat="43.45628" lon="1.82844">
        <ele>280.20001220703</ele>
        <time>2023-12-16T13:34:06Z</time>
      </trkpt>
      <trkpt lat="43.45631" lon="1.82846">
        <ele>280.39999389648</ele>
        <time>2023-12-16T13:34:28Z</time>
      </trkpt>
      <trkpt lat="43.45624" lon="1.82846">
        <ele>280.60000610352</ele>
        <time>2023-12-16T13:34:43Z</time>
      </trkpt>
      <trkpt lat="43.45625" lon="1.82843">
        <ele>280.60000610352</ele>
        <time>2023-12-16T13:35:05Z</time>
      </trkpt>
      <trkpt lat="43.45625" lon="1.82839">
        <ele>280.60000610352</ele>
        <time>2023-12-16T13:35:24Z</time>
      </trkpt>
      <trkpt lat="43.45624" lon="1.82841">
        <ele>280.39999389648</ele>
        <time>2023-12-16T13:36:06Z</time>
      </trkpt>
      <trkpt lat="43.45626" lon="1.82844">
        <ele>280.39999389648</ele>
        <time>2023-12-16T13:36:26Z</time>
      </trkpt>
      <trkpt lat="43.45621" lon="1.82854">
        <ele>280.60000610352</ele>
        <time>2023-12-16T13:36:43Z</time>
      </trkpt>
      <trkpt lat="43.45619" lon="1.82863">
        <ele>280.39999389648</ele>
        <time>2023-12-16T13:36:58Z</time>
      </trkpt>
      <trkpt lat="43.45617" lon="1.82872">
        <ele>280.39999389648</ele>
        <time>2023-12-16T13:37:07Z</time>
      </trkpt>
      <trkpt lat="43.45616" lon="1.82874">
        <ele>280.39999389648</ele>
        <time>2023-12-16T13:37:09Z</time>
      </trkpt>
      <trkpt lat="43.45616" lon="1.82876">
        <ele>280.39999389648</ele>
        <time>2023-12-16T13:37:10Z</time>
      </trkpt>
      <trkpt lat="43.45612" lon="1.82892">
        <ele>280.39999389648</ele>
        <time>2023-12-16T13:37:24Z</time>
      </trkpt>
      <trkpt lat="43.45609" lon="1.82906">
        <ele>280.39999389648</ele>
        <time>2023-12-16T13:37:35Z</time>
      </trkpt>
      <trkpt lat="43.45606" lon="1.82921">
        <ele>280.60000610352</ele>
        <time>2023-12-16T13:37:48Z</time>
      </trkpt>
      <trkpt lat="43.45602" lon="1.82948">
        <ele>280.60000610352</ele>
        <time>2023-12-16T13:38:08Z</time>
      </trkpt>
      <trkpt lat="43.456" lon="1.82973">
        <ele>280.79998779297</ele>
        <time>2023-12-16T13:38:27Z</time>
      </trkpt>
      <trkpt lat="43.45598" lon="1.83006">
        <ele>281</ele>
        <time>2023-12-16T13:38:51Z</time>
      </trkpt>
      <trkpt lat="43.45597" lon="1.83016">
        <ele>281.39999389648</ele>
        <time>2023-12-16T13:38:59Z</time>
      </trkpt>
      <trkpt lat="43.45593" lon="1.83041">
        <ele>281.60000610352</ele>
        <time>2023-12-16T13:39:18Z</time>
      </trkpt>
      <trkpt lat="43.45585" lon="1.83066">
        <ele>282</ele>
        <time>2023-12-16T13:39:38Z</time>
      </trkpt>
      <trkpt lat="43.45584" lon="1.83072">
        <ele>282.20001220703</ele>
        <time>2023-12-16T13:39:43Z</time>
      </trkpt>
      <trkpt lat="43.45575" lon="1.83094">
        <ele>283.39999389648</ele>
        <time>2023-12-16T13:40:01Z</time>
      </trkpt>
      <trkpt lat="43.45566" lon="1.83115">
        <ele>284.20001220703</ele>
        <time>2023-12-16T13:40:18Z</time>
      </trkpt>
      <trkpt lat="43.45558" lon="1.83136">
        <ele>285.20001220703</ele>
        <time>2023-12-16T13:40:37Z</time>
      </trkpt>
      <trkpt lat="43.45552" lon="1.8316">
        <ele>286.20001220703</ele>
        <time>2023-12-16T13:40:56Z</time>
      </trkpt>
      <trkpt lat="43.4555" lon="1.83191">
        <ele>287</ele>
        <time>2023-12-16T13:41:18Z</time>
      </trkpt>
      <trkpt lat="43.45549" lon="1.83221">
        <ele>288</ele>
        <time>2023-12-16T13:41:40Z</time>
      </trkpt>
      <trkpt lat="43.45542" lon="1.83255">
        <ele>289</ele>
        <time>2023-12-16T13:42:03Z</time>
      </trkpt>
      <trkpt lat="43.45534" lon="1.83273">
        <ele>289.60000610352</ele>
        <time>2023-12-16T13:42:18Z</time>
      </trkpt>
      <trkpt lat="43.45524" lon="1.83295">
        <ele>290.60000610352</ele>
        <time>2023-12-16T13:42:37Z</time>
      </trkpt>
      <trkpt lat="43.45516" lon="1.83312">
        <ele>291.79998779297</ele>
        <time>2023-12-16T13:42:54Z</time>
      </trkpt>
      <trkpt lat="43.45504" lon="1.83329">
        <ele>292.60000610352</ele>
        <time>2023-12-16T13:43:10Z</time>
      </trkpt>
      <trkpt lat="43.45501" lon="1.83334">
        <ele>292.60000610352</ele>
        <time>2023-12-16T13:43:15Z</time>
      </trkpt>
      <trkpt lat="43.455" lon="1.83335">
        <ele>292.79998779297</ele>
        <time>2023-12-16T13:43:16Z</time>
      </trkpt>
      <trkpt lat="43.455" lon="1.83336">
        <ele>292.79998779297</ele>
        <time>2023-12-16T13:43:17Z</time>
      </trkpt>
      <trkpt lat="43.45484" lon="1.83358">
        <ele>293</ele>
        <time>2023-12-16T13:43:38Z</time>
      </trkpt>
      <trkpt lat="43.45469" lon="1.83378">
        <ele>293</ele>
        <time>2023-12-16T13:43:58Z</time>
      </trkpt>
      <trkpt lat="43.45455" lon="1.834">
        <ele>292.79998779297</ele>
        <time>2023-12-16T13:44:17Z</time>
      </trkpt>
      <trkpt lat="43.45441" lon="1.83422">
        <ele>292.60000610352</ele>
        <time>2023-12-16T13:44:36Z</time>
      </trkpt>
      <trkpt lat="43.45424" lon="1.83447">
        <ele>292.20001220703</ele>
        <time>2023-12-16T13:44:58Z</time>
      </trkpt>
      <trkpt lat="43.45411" lon="1.83471">
        <ele>292.20001220703</ele>
        <time>2023-12-16T13:45:19Z</time>
      </trkpt>
      <trkpt lat="43.45406" lon="1.83491">
        <ele>291.39999389648</ele>
        <time>2023-12-16T13:45:37Z</time>
      </trkpt>
      <trkpt lat="43.45404" lon="1.83493">
        <ele>290.79998779297</ele>
        <time>2023-12-16T13:45:53Z</time>
      </trkpt>
      <trkpt lat="43.45403" lon="1.83491">
        <ele>290.79998779297</ele>
        <time>2023-12-16T13:46:48Z</time>
      </trkpt>
      <trkpt lat="43.45404" lon="1.83491">
        <ele>290.79998779297</ele>
        <time>2023-12-16T13:47:13Z</time>
      </trkpt>
      <trkpt lat="43.45402" lon="1.83489">
        <ele>290.79998779297</ele>
        <time>2023-12-16T13:47:30Z</time>
      </trkpt>
      <trkpt lat="43.45404" lon="1.83492">
        <ele>290.79998779297</ele>
        <time>2023-12-16T13:47:47Z</time>
      </trkpt>
      <trkpt lat="43.45412" lon="1.83503">
        <ele>291</ele>
        <time>2023-12-16T13:48:02Z</time>
      </trkpt>
      <trkpt lat="43.45415" lon="1.83506">
        <ele>291.20001220703</ele>
        <time>2023-12-16T13:48:06Z</time>
      </trkpt>
      <trkpt lat="43.45418" lon="1.83509">
        <ele>291.39999389648</ele>
        <time>2023-12-16T13:48:10Z</time>
      </trkpt>
      <trkpt lat="43.45419" lon="1.83509">
        <ele>291.39999389648</ele>
        <time>2023-12-16T13:48:11Z</time>
      </trkpt>
      <trkpt lat="43.45422" lon="1.83512">
        <ele>291.39999389648</ele>
        <time>2023-12-16T13:48:14Z</time>
      </trkpt>
      <trkpt lat="43.45423" lon="1.83513">
        <ele>291.39999389648</ele>
        <time>2023-12-16T13:48:15Z</time>
      </trkpt>
      <trkpt lat="43.45444" lon="1.8353">
        <ele>292.20001220703</ele>
        <time>2023-12-16T13:48:39Z</time>
      </trkpt>
      <trkpt lat="43.4546" lon="1.83544">
        <ele>292.39999389648</ele>
        <time>2023-12-16T13:48:58Z</time>
      </trkpt>
      <trkpt lat="43.45476" lon="1.83557">
        <ele>291.79998779297</ele>
        <time>2023-12-16T13:49:16Z</time>
      </trkpt>
      <trkpt lat="43.45494" lon="1.83572">
        <ele>291.79998779297</ele>
        <time>2023-12-16T13:49:36Z</time>
      </trkpt>
      <trkpt lat="43.45509" lon="1.83585">
        <ele>291.60000610352</ele>
        <time>2023-12-16T13:49:53Z</time>
      </trkpt>
      <trkpt lat="43.45522" lon="1.83596">
        <ele>291.60000610352</ele>
        <time>2023-12-16T13:50:07Z</time>
      </trkpt>
      <trkpt lat="43.45523" lon="1.83597">
        <ele>291.79998779297</ele>
        <time>2023-12-16T13:50:08Z</time>
      </trkpt>
      <trkpt lat="43.45533" lon="1.83604">
        <ele>292.20001220703</ele>
        <time>2023-12-16T13:50:18Z</time>
      </trkpt>
      <trkpt lat="43.45536" lon="1.83611">
        <ele>292.39999389648</ele>
        <time>2023-12-16T13:50:25Z</time>
      </trkpt>
      <trkpt lat="43.45537" lon="1.83612">
        <ele>292.39999389648</ele>
        <time>2023-12-16T13:50:26Z</time>
      </trkpt>
      <trkpt lat="43.45542" lon="1.83617">
        <ele>292.79998779297</ele>
        <time>2023-12-16T13:50:32Z</time>
      </trkpt>
      <trkpt lat="43.45542" lon="1.83618">
        <ele>292.79998779297</ele>
        <time>2023-12-16T13:50:33Z</time>
      </trkpt>
      <trkpt lat="43.45543" lon="1.8362">
        <ele>292.79998779297</ele>
        <time>2023-12-16T13:50:34Z</time>
      </trkpt>
      <trkpt lat="43.45548" lon="1.83627">
        <ele>294</ele>
        <time>2023-12-16T13:50:51Z</time>
      </trkpt>
      <trkpt lat="43.4555" lon="1.83624">
        <ele>294</ele>
        <time>2023-12-16T13:51:13Z</time>
      </trkpt>
      <trkpt lat="43.45553" lon="1.83622">
        <ele>294</ele>
        <time>2023-12-16T13:51:16Z</time>
      </trkpt>
      <trkpt lat="43.45555" lon="1.83621">
        <ele>294</ele>
        <time>2023-12-16T13:51:17Z</time>
      </trkpt>
      <trkpt lat="43.45556" lon="1.83621">
        <ele>294</ele>
        <time>2023-12-16T13:51:18Z</time>
      </trkpt>
      <trkpt lat="43.45563" lon="1.83617">
        <ele>294.20001220703</ele>
        <time>2023-12-16T13:51:24Z</time>
      </trkpt>
      <trkpt lat="43.45565" lon="1.83616">
        <ele>294.20001220703</ele>
        <time>2023-12-16T13:51:25Z</time>
      </trkpt>
      <trkpt lat="43.45566" lon="1.83616">
        <ele>294.20001220703</ele>
        <time>2023-12-16T13:51:26Z</time>
      </trkpt>
      <trkpt lat="43.45567" lon="1.83615">
        <ele>294.20001220703</ele>
        <time>2023-12-16T13:51:27Z</time>
      </trkpt>
      <trkpt lat="43.45569" lon="1.83615">
        <ele>294.20001220703</ele>
        <time>2023-12-16T13:51:28Z</time>
      </trkpt>
      <trkpt lat="43.45595" lon="1.83605">
        <ele>295.20001220703</ele>
        <time>2023-12-16T13:51:45Z</time>
      </trkpt>
      <trkpt lat="43.456" lon="1.83604">
        <ele>295.79998779297</ele>
        <time>2023-12-16T13:51:51Z</time>
      </trkpt>
      <trkpt lat="43.45601" lon="1.83604">
        <ele>296</ele>
        <time>2023-12-16T13:51:52Z</time>
      </trkpt>
      <trkpt lat="43.45602" lon="1.83603">
        <ele>296</ele>
        <time>2023-12-16T13:51:53Z</time>
      </trkpt>
      <trkpt lat="43.45603" lon="1.83602">
        <ele>296</ele>
        <time>2023-12-16T13:51:54Z</time>
      </trkpt>
      <trkpt lat="43.45604" lon="1.83601">
        <ele>296.20001220703</ele>
        <time>2023-12-16T13:51:55Z</time>
      </trkpt>
      <trkpt lat="43.45625" lon="1.83582">
        <ele>297.60000610352</ele>
        <time>2023-12-16T13:52:12Z</time>
      </trkpt>
      <trkpt lat="43.45633" lon="1.83579">
        <ele>299.20001220703</ele>
        <time>2023-12-16T13:52:27Z</time>
      </trkpt>
      <trkpt lat="43.45639" lon="1.83581">
        <ele>299.60000610352</ele>
        <time>2023-12-16T13:52:53Z</time>
      </trkpt>
      <trkpt lat="43.45641" lon="1.83577">
        <ele>300</ele>
        <time>2023-12-16T13:53:13Z</time>
      </trkpt>
      <trkpt lat="43.45649" lon="1.83585">
        <ele>300.20001220703</ele>
        <time>2023-12-16T13:53:30Z</time>
      </trkpt>
      <trkpt lat="43.45651" lon="1.83599">
        <ele>301.39999389648</ele>
        <time>2023-12-16T13:53:45Z</time>
      </trkpt>
      <trkpt lat="43.45653" lon="1.83608">
        <ele>301.79998779297</ele>
        <time>2023-12-16T13:53:51Z</time>
      </trkpt>
      <trkpt lat="43.45658" lon="1.83616">
        <ele>302.79998779297</ele>
        <time>2023-12-16T13:54:06Z</time>
      </trkpt>
      <trkpt lat="43.45669" lon="1.83634">
        <ele>304.20001220703</ele>
        <time>2023-12-16T13:54:25Z</time>
      </trkpt>
      <trkpt lat="43.45682" lon="1.83637">
        <ele>304.79998779297</ele>
        <time>2023-12-16T13:54:34Z</time>
      </trkpt>
      <trkpt lat="43.45687" lon="1.8365">
        <ele>304.60000610352</ele>
        <time>2023-12-16T13:54:43Z</time>
      </trkpt>
      <trkpt lat="43.45687" lon="1.83652">
        <ele>304.60000610352</ele>
        <time>2023-12-16T13:54:44Z</time>
      </trkpt>
      <trkpt lat="43.45687" lon="1.83654">
        <ele>304.20001220703</ele>
        <time>2023-12-16T13:54:45Z</time>
      </trkpt>
      <trkpt lat="43.45687" lon="1.83656">
        <ele>304.20001220703</ele>
        <time>2023-12-16T13:54:46Z</time>
      </trkpt>
      <trkpt lat="43.45687" lon="1.83657">
        <ele>304</ele>
        <time>2023-12-16T13:54:47Z</time>
      </trkpt>
      <trkpt lat="43.45695" lon="1.83662">
        <ele>302</ele>
        <time>2023-12-16T13:55:02Z</time>
      </trkpt>
      <trkpt lat="43.45698" lon="1.83658">
        <ele>301.79998779297</ele>
        <time>2023-12-16T13:55:05Z</time>
      </trkpt>
      <trkpt lat="43.45699" lon="1.83656">
        <ele>301.60000610352</ele>
        <time>2023-12-16T13:55:06Z</time>
      </trkpt>
      <trkpt lat="43.45701" lon="1.83645">
        <ele>301.39999389648</ele>
        <time>2023-12-16T13:55:15Z</time>
      </trkpt>
      <trkpt lat="43.45706" lon="1.83643">
        <ele>301.60000610352</ele>
        <time>2023-12-16T13:55:31Z</time>
      </trkpt>
      <trkpt lat="43.45714" lon="1.83643">
        <ele>301.60000610352</ele>
        <time>2023-12-16T13:55:51Z</time>
      </trkpt>
      <trkpt lat="43.45714" lon="1.83637">
        <ele>301.60000610352</ele>
        <time>2023-12-16T13:56:05Z</time>
      </trkpt>
      <trkpt lat="43.45713" lon="1.83637">
        <ele>301.39999389648</ele>
        <time>2023-12-16T13:56:10Z</time>
      </trkpt>
    </trkseg>
  </trk>
</gpx>